Observation data for Van Horn on 06/25/2019      Previous  Date  Next       Current Mesonet Observations  Soil Data  Daily Summary Page  Observations in Plain Language
KVA1 250500Z 00007KT 26/M02 A2994 RMK A01 T02611023  RH  015%=      5-min Rain = 0
KVA1 250501Z 01006KT 26/M02 A2994 RMK A01 T02611022  RH  015%=      5-min Rain = 0
KVA1 250502Z 00007KT 26/M02 A2994 RMK A01 T02611021  RH  015%=      5-min Rain = 0
KVA1 250503Z 00006KT 26/M02 A2994 RMK A01 T02611021  RH  016%=      5-min Rain = 0
KVA1 250504Z 00006KT 26/M02 A2994 RMK A01 T02611021  RH  016%=      5-min Rain = 0
KVA1 250505Z 00005KT 26/M02 A2994 RMK A01 T02611021  RH  016%=      5-min Rain = 0
KVA1 250506Z 36005KT 26/M02 A2994 RMK A01 T02601021  RH  016%=      5-min Rain = 0
KVA1 250507Z 35005KT 26/M02 A2994 RMK A01 T02601021  RH  016%=      5-min Rain = 0
KVA1 250508Z 36004KT 26/M02 A2995 RMK A01 T02601021  RH  016%=      5-min Rain = 0
KVA1 250509Z 35004KT 26/M02 A2995 RMK A01 T02591021  RH  016%=      5-min Rain = 0
KVA1 250510Z 36002KT 26/M02 A2995 RMK A01 T02571022  RH  016%=      5-min Rain = 0
KVA1 250511Z 35004KT 26/M02 A2995 RMK A01 T02561022  RH  016%=      5-min Rain = 0
KVA1 250512Z 35005KT 26/M02 A2995 RMK A01 T02551022  RH  016%=      5-min Rain = 0
KVA1 250513Z 35006KT 25/M02 A2995 RMK A01 T02541021  RH  016%=      5-min Rain = 0
KVA1 250514Z 36006KT 25/M02 A2995 RMK A01 T02511021  RH  016%=      5-min Rain = 0
KVA1 250515Z 00006KT 25/M02 A2995 RMK A01 T02501022  RH  016%=      5-min Rain = 0
KVA1 250516Z 00006KT 25/M02 A2995 RMK A01 T02491021  RH  017%=      5-min Rain = 0
KVA1 250517Z 00006KT 25/M02 A2995 RMK A01 T02501021  RH  017%=      5-min Rain = 0
KVA1 250518Z 00006KT 25/M02 A2995 RMK A01 T02521020  RH  017%=      5-min Rain = 0
KVA1 250519Z 01006KT 25/M02 A2995 RMK A01 T02541019  RH  016%=      5-min Rain = 0
KVA1 250520Z 01006KT 26/M02 A2995 RMK A01 T02551020  RH  016%=      5-min Rain = 0
KVA1 250521Z 35006KT 26/M02 A2995 RMK A01 T02551020  RH  016%=      5-min Rain = 0
KVA1 250522Z 36007KT 25/M02 A2995 RMK A01 T02541019  RH  016%=      5-min Rain = 0
KVA1 250523Z 00007KT 25/M02 A2995 RMK A01 T02531020  RH  016%=      5-min Rain = 0
KVA1 250524Z 01007KT 25/M02 A2995 RMK A01 T02531020  RH  016%=      5-min Rain = 0
KVA1 250525Z 01007KT 25/M02 A2995 RMK A01 T02531020  RH  016%=      5-min Rain = 0
KVA1 250526Z 01007KT 25/M02 A2995 RMK A01 T02531020  RH  016%=      5-min Rain = 0
KVA1 250527Z 02008KT 25/M02 A2995 RMK A01 T02531021  RH  016%=      5-min Rain = 0
KVA1 250528Z 02007KT 25/M02 A2995 RMK A01 T02531020  RH  016%=      5-min Rain = 0
KVA1 250529Z 03007KT 25/M02 A2995 RMK A01 T02521021  RH  016%=      5-min Rain = 0
KVA1 250530Z 04006KT 25/M02 A2995 RMK A01 T02531020  RH  016%=      5-min Rain = 0
KVA1 250531Z 03005KT 25/M02 A2995 RMK A01 T02531019  RH  016%=      5-min Rain = 0
KVA1 250532Z 03005KT 25/M02 A2995 RMK A01 T02531019  RH  017%=      5-min Rain = 0
KVA1 250533Z 02004KT 25/M02 A2995 RMK A01 T02531018  RH  017%=      5-min Rain = 0
KVA1 250534Z 02004KT 25/M02 A2995 RMK A01 T02541018  RH  016%=      5-min Rain = 0
KVA1 250535Z 02004KT 26/M02 A2995 RMK A01 T02551019  RH  016%=      5-min Rain = 0
KVA1 250536Z 02004KT 26/M02 A2995 RMK A01 T02551020  RH  016%=      5-min Rain = 0
KVA1 250537Z 03004KT 25/M02 A2995 RMK A01 T02541020  RH  016%=      5-min Rain = 0
KVA1 250538Z 04004KT 25/M02 A2995 RMK A01 T02511018  RH  017%=      5-min Rain = 0
KVA1 250539Z 04004KT 25/M02 A2995 RMK A01 T02491019  RH  017%=      5-min Rain = 0
KVA1 250540Z 04004KT 25/M02 A2996 RMK A01 T02481019  RH  017%=      5-min Rain = 0
KVA1 250541Z 04004KT 25/M02 A2996 RMK A01 T02481020  RH  017%=      5-min Rain = 0
KVA1 250542Z 05004KT 25/M02 A2996 RMK A01 T02471020  RH  017%=      5-min Rain = 0
KVA1 250543Z 10004KT 25/M02 A2996 RMK A01 T02471020  RH  017%=      5-min Rain = 0
KVA1 250544Z 16006KT 25/M02 A2996 RMK A01 T02461019  RH  017%=      5-min Rain = 0
KVA1 250545Z 18006KT 25/M02 A2996 RMK A01 T02461017  RH  017%=      5-min Rain = 0
KVA1 250546Z 16004KT 25/M02 A2996 RMK A01 T02471016  RH  018%=      5-min Rain = 0
KVA1 250547Z 16006KT 25/M02 A2996 RMK A01 T02481016  RH  017%=      5-min Rain = 0
KVA1 250548Z 16008KT 25/M02 A2996 RMK A01 T02481016  RH  017%=      5-min Rain = 0
KVA1 250549Z 15006KT 25/M02 A2996 RMK A01 T02481016  RH  017%=      5-min Rain = 0
KVA1 250550Z 16006KT 25/M02 A2996 RMK A01 T02491015  RH  017%=      5-min Rain = 0
KVA1 250551Z 15006KT 25/M01 A2996 RMK A01 T02491014  RH  018%=      5-min Rain = 0
KVA1 250552Z 14005KT 25/M01 A2996 RMK A01 T02491014  RH  017%=      5-min Rain = 0
KVA1 250553Z 14004KT 25/M01 A2996 RMK A01 T02501014  RH  017%=      5-min Rain = 0
KVA1 250554Z 13004KT 25/M01 A2996 RMK A01 T02501014  RH  018%=      5-min Rain = 0
KVA1 250555Z 11003KT 25/M01 A2995 RMK A01 T02501013  RH  018%=      5-min Rain = 0
KVA1 250556Z 11002KT 25/M01 A2995 RMK A01 T02511013  RH  018%=      5-min Rain = 0
KVA1 250557Z 11002KT 25/M01 A2995 RMK A01 T02511013  RH  018%=      5-min Rain = 0
KVA1 250558Z 12002KT 25/M01 A2995 RMK A01 T02511012  RH  018%=      5-min Rain = 0
KVA1 250559Z 11002KT 25/M01 A2995 RMK A01 T02501013  RH  018%=      5-min Rain = 0
KVA1 250600Z 11002KT 25/M01 A2995 RMK A01 T02511012  RH  018%=      5-min Rain = 0
KVA1 250601Z 11002KT 25/M01 A2996 RMK A01 T02501013  RH  018%=      5-min Rain = 0
KVA1 250602Z 12002KT 25/M01 A2995 RMK A01 T02491013  RH  018%=      5-min Rain = 0
KVA1 250603Z 15003KT 25/M01 A2995 RMK A01 T02471013  RH  018%=      5-min Rain = 0
KVA1 250604Z 17004KT 25/M01 A2995 RMK A01 T02461013  RH  018%=      5-min Rain = 0
KVA1 250605Z 17005KT 24/M01 A2995 RMK A01 T02441011  RH  018%=      5-min Rain = 0
KVA1 250606Z 16006KT 24/M01 A2995 RMK A01 T02441011  RH  018%=      5-min Rain = 0
KVA1 250607Z 16006KT 24/M01 A2995 RMK A01 T02441011  RH  018%=      5-min Rain = 0
KVA1 250608Z 16005KT 24/M01 A2995 RMK A01 T02441011  RH  018%=      5-min Rain = 0
KVA1 250609Z 16005KT 24/M01 A2995 RMK A01 T02441011  RH  018%=      5-min Rain = 0
KVA1 250610Z 17005KT 24/M01 A2995 RMK A01 T02441012  RH  018%=      5-min Rain = 0
KVA1 250611Z 16004KT 24/M01 A2995 RMK A01 T02431012  RH  018%=      5-min Rain = 0
KVA1 250612Z 16004KT 24/M01 A2995 RMK A01 T02411014  RH  018%=      5-min Rain = 0
KVA1 250613Z 16003KT 24/M01 A2995 RMK A01 T02401014  RH  018%=      5-min Rain = 0
KVA1 250614Z 16003KT 24/M01 A2995 RMK A01 T02381014  RH  019%=      5-min Rain = 0
KVA1 250615Z 17002KT 24/M02 A2995 RMK A01 T02381015  RH  019%=      5-min Rain = 0
KVA1 250616Z 17002KT 24/M02 A2995 RMK A01 T02361015  RH  019%=      5-min Rain = 0
KVA1 250617Z 18002KT 24/M01 A2995 RMK A01 T02361014  RH  019%=      5-min Rain = 0
KVA1 250618Z 20001KT 24/M01 A2995 RMK A01 T02361014  RH  019%=      5-min Rain = 0
KVA1 250619Z 23001KT 24/M01 A2995 RMK A01 T02361014  RH  019%=      5-min Rain = 0
KVA1 250620Z 24002KT 24/M02 A2995 RMK A01 T02351015  RH  019%=      5-min Rain = 0
KVA1 250621Z 24002KT 23/M02 A2995 RMK A01 T02331017  RH  019%=      5-min Rain = 0
KVA1 250622Z 23002KT 23/M02 A2995 RMK A01 T02311016  RH  019%=      5-min Rain = 0
KVA1 250623Z 24001KT 23/M02 A2995 RMK A01 T02311016  RH  019%=      5-min Rain = 0
KVA1 250624Z 16001KT 23/M02 A2995 RMK A01 T02291017  RH  019%=      5-min Rain = 0
KVA1 250625Z 16002KT 23/M02 A2995 RMK A01 T02281015  RH  020%=      5-min Rain = 0
KVA1 250626Z 16001KT 23/M02 A2995 RMK A01 T02291015  RH  020%=      5-min Rain = 0
KVA1 250627Z 13001KT 23/M01 A2995 RMK A01 T02291014  RH  020%=      5-min Rain = 0
KVA1 250628Z 10001KT 23/M01 A2995 RMK A01 T02311013  RH  020%=      5-min Rain = 0
KVA1 250629Z 20000KT 23/M01 A2995 RMK A01 T02321013  RH  020%=      5-min Rain = 0
KVA1 250630Z 19003KT 23/M01 A2995 RMK A01 T02331012  RH  020%=      5-min Rain = 0
KVA1 250631Z 17002KT 23/M01 A2995 RMK A01 T02341013  RH  019%=      5-min Rain = 0
KVA1 250632Z 19001KT 24/M01 A2995 RMK A01 T02351012  RH  019%=      5-min Rain = 0
KVA1 250633Z 21001KT 24/M01 A2995 RMK A01 T02351014  RH  019%=      5-min Rain = 0
KVA1 250634Z 20001KT 24/M01 A2995 RMK A01 T02351012  RH  019%=      5-min Rain = 0
KVA1 250635Z 17001KT 24/M01 A2995 RMK A01 T02371011  RH  019%=      5-min Rain = 0
KVA1 250636Z 15001KT 24/M01 A2995 RMK A01 T02391011  RH  019%=      5-min Rain = 0
KVA1 250637Z 14002KT 24/M01 A2995 RMK A01 T02391012  RH  019%=      5-min Rain = 0
KVA1 250638Z 14001KT 24/M01 A2996 RMK A01 T02381013  RH  019%=      5-min Rain = 0
KVA1 250639Z 17002KT 24/M02 A2996 RMK A01 T02361015  RH  019%=      5-min Rain = 0
KVA1 250640Z 16002KT 23/M02 A2996 RMK A01 T02341016  RH  019%=      5-min Rain = 0
KVA1 250641Z 19001KT 23/M02 A2996 RMK A01 T02321018  RH  019%=      5-min Rain = 0
KVA1 250642Z 23000KT 23/M02 A2996 RMK A01 T02281016  RH  020%=      5-min Rain = 0
KVA1 250643Z 17002KT 23/M02 A2996 RMK A01 T02261016  RH  020%=      5-min Rain = 0
KVA1 250644Z 17003KT 23/M02 A2996 RMK A01 T02251015  RH  020%=      5-min Rain = 0
KVA1 250645Z 17004KT 23/M02 A2996 RMK A01 T02251015  RH  020%=      5-min Rain = 0
KVA1 250646Z 18005KT 22/M02 A2996 RMK A01 T02241015  RH  020%=      5-min Rain = 0
KVA1 250647Z 19005KT 22/M01 A2996 RMK A01 T02241014  RH  020%=      5-min Rain = 0
KVA1 250648Z 21005KT 23/M01 A2996 RMK A01 T02261012  RH  020%=      5-min Rain = 0
KVA1 250649Z 22006KT 23/M01 A2996 RMK A01 T02271014  RH  020%=      5-min Rain = 0
KVA1 250650Z 21007KT 23/M01 A2996 RMK A01 T02271014  RH  020%=      5-min Rain = 0
KVA1 250651Z 21008KT 23/M01 A2996 RMK A01 T02281014  RH  020%=      5-min Rain = 0
KVA1 250652Z 21008KT 23/M01 A2996 RMK A01 T02291014  RH  020%=      5-min Rain = 0
KVA1 250653Z 21007KT 23/M01 A2996 RMK A01 T02301014  RH  020%=      5-min Rain = 0
KVA1 250654Z 22007KT 23/M01 A2996 RMK A01 T02301014  RH  020%=      5-min Rain = 0
KVA1 250655Z 22007KT 23/M01 A2996 RMK A01 T02291014  RH  020%=      5-min Rain = 0
KVA1 250656Z 22007KT 23/M01 A2996 RMK A01 T02301014  RH  020%=      5-min Rain = 0
KVA1 250657Z 22007KT 23/M01 A2996 RMK A01 T02291013  RH  020%=      5-min Rain = 0
KVA1 250658Z 21007KT 23/M01 A2996 RMK A01 T02291012  RH  020%=      5-min Rain = 0
KVA1 250659Z 22007KT 23/M01 A2996 RMK A01 T02291011  RH  020%=      5-min Rain = 0
KVA1 250700Z 22007KT 23/M01 A2996 RMK A01 T02291011  RH  020%=      5-min Rain = 0
KVA1 250701Z 22007KT 23/M01 A2996 RMK A01 T02301010  RH  020%=      5-min Rain = 0
KVA1 250702Z 22007KT 23/M01 A2996 RMK A01 T02301011  RH  020%=      5-min Rain = 0
KVA1 250703Z 22007KT 23/M01 A2996 RMK A01 T02301011  RH  020%=      5-min Rain = 0
KVA1 250704Z 22007KT 23/M01 A2996 RMK A01 T02301011  RH  020%=      5-min Rain = 0
KVA1 250705Z 22007KT 23/M01 A2996 RMK A01 T02301011  RH  020%=      5-min Rain = 0
KVA1 250706Z 22007KT 23/M01 A2996 RMK A01 T02301012  RH  020%=      5-min Rain = 0
KVA1 250707Z 22008KT 23/M01 A2996 RMK A01 T02301011  RH  020%=      5-min Rain = 0
KVA1 250708Z 22008KT 23/M01 A2996 RMK A01 T02311011  RH  020%=      5-min Rain = 0
KVA1 250709Z 21007KT 23/M01 A2996 RMK A01 T02311011  RH  020%=      5-min Rain = 0
KVA1 250710Z 21008KT 23/M01 A2997 RMK A01 T02311011  RH  020%=      5-min Rain = 0
KVA1 250711Z 20008KT 23/M01 A2997 RMK A01 T02301012  RH  020%=      5-min Rain = 0
KVA1 250712Z 20008KT 23/M01 A2997 RMK A01 T02291013  RH  020%=      5-min Rain = 0
KVA1 250713Z 20008KT 23/M01 A2997 RMK A01 T02291013  RH  020%=      5-min Rain = 0
KVA1 250714Z 20008KT 23/M01 A2997 RMK A01 T02301013  RH  020%=      5-min Rain = 0
KVA1 250715Z 20008KT 23/M01 A2997 RMK A01 T02301014  RH  020%=      5-min Rain = 0
KVA1 250716Z 20008KT 23/M01 A2997 RMK A01 T02301013  RH  020%=      5-min Rain = 0
KVA1 250717Z 21009KT 23/M01 A2997 RMK A01 T02291013  RH  020%=      5-min Rain = 0
KVA1 250718Z 20008KT 23/M01 A2997 RMK A01 T02291011  RH  020%=      5-min Rain = 0
KVA1 250719Z 21009KT 23/M01 A2997 RMK A01 T02291008  RH  021%=      5-min Rain = 0
KVA1 250720Z 20008KT 23/M01 A2997 RMK A01 T02301005  RH  021%=      5-min Rain = 0
KVA1 250721Z 20008KT 23/M01 A2997 RMK A01 T02311005  RH  021%=      5-min Rain = 0
KVA1 250722Z 20009KT 23/M00 A2997 RMK A01 T02301004  RH  021%=      5-min Rain = 0
KVA1 250723Z 20009KT 23/M00 A2997 RMK A01 T02301002  RH  021%=      5-min Rain = 0
KVA1 250724Z 20008KT 23/M00 A2997 RMK A01 T02301003  RH  021%=      5-min Rain = 0
KVA1 250725Z 20008KT 23/M00 A2997 RMK A01 T02291004  RH  021%=      5-min Rain = 0
KVA1 250726Z 20008KT 23/M01 A2997 RMK A01 T02291006  RH  021%=      5-min Rain = 0
KVA1 250727Z 21009KT 23/M00 A2997 RMK A01 T02281004  RH  021%=      5-min Rain = 0
KVA1 250728Z 21009KT 23/00 A2997 RMK A01 T02280003  RH  023%=      5-min Rain = 0
KVA1 250729Z 21008KT 23/01 A2997 RMK A01 T02280009  RH  023%=      5-min Rain = 0
KVA1 250730Z 20009KT 23/01 A2997 RMK A01 T02280014  RH  024%=      5-min Rain = 0
KVA1 250731Z 20009KT 23/02 A2997 RMK A01 T02280022  RH  026%=      5-min Rain = 0
KVA1 250732Z 20007KT 23/02 A2997 RMK A01 T02290024  RH  026%=      5-min Rain = 0
KVA1 250733Z 19008KT 23/03 A2997 RMK A01 T02290027  RH  027%=      5-min Rain = 0
KVA1 250734Z 19008KT 23/03 A2997 RMK A01 T02300032  RH  027%=      5-min Rain = 0
KVA1 250735Z 19010KT 23/04 A2997 RMK A01 T02290036  RH  028%=      5-min Rain = 0
KVA1 250736Z 19009KT 23/04 A2997 RMK A01 T02300041  RH  029%=      5-min Rain = 0
KVA1 250737Z 19011KT 23/05 A2997 RMK A01 T02300049  RH  031%=      5-min Rain = 0
KVA1 250738Z 19011KT 23/06 A2997 RMK A01 T02310055  RH  032%=      5-min Rain = 0
KVA1 250739Z 18012KT 23/06 A2997 RMK A01 T02330060  RH  033%=      5-min Rain = 0
KVA1 250740Z 19010KT 23/06 A2997 RMK A01 T02340064  RH  033%=      5-min Rain = 0
KVA1 250741Z 19009KT 24/07 A2997 RMK A01 T02360067  RH  034%=      5-min Rain = 0
KVA1 250742Z 19009KT 24/07 A2997 RMK A01 T02370068  RH  034%=      5-min Rain = 0
KVA1 250743Z 19009KT 24/07 A2997 RMK A01 T02370069  RH  034%=      5-min Rain = 0
KVA1 250744Z 19012KT 24/08 A2997 RMK A01 T02370075  RH  035%=      5-min Rain = 0
KVA1 250745Z 19010KT 24/08 A2997 RMK A01 T02390078  RH  036%=      5-min Rain = 0
KVA1 250746Z 19011KT 24/08 A2997 RMK A01 T02390081  RH  036%=      5-min Rain = 0
KVA1 250747Z 19010KT 24/09 A2997 RMK A01 T02400085  RH  037%=      5-min Rain = 0
KVA1 250748Z 19008KT 24/09 A2997 RMK A01 T02410087  RH  037%=      5-min Rain = 0
KVA1 250749Z 20008KT 24/09 A2997 RMK A01 T02410088  RH  038%=      5-min Rain = 0
KVA1 250750Z 20008KT 24/09 A2998 RMK A01 T02410091  RH  039%=      5-min Rain = 0
KVA1 250751Z 21007KT 24/09 A2998 RMK A01 T02410094  RH  039%=      5-min Rain = 0
KVA1 250752Z 21008KT 24/10 A2998 RMK A01 T02410097  RH  040%=      5-min Rain = 0
KVA1 250753Z 22007KT 24/10 A2998 RMK A01 T02410100  RH  041%=      5-min Rain = 0
KVA1 250754Z 23005KT 24/10 A2998 RMK A01 T02420102  RH  041%=      5-min Rain = 0
KVA1 250755Z 23005KT 24/10 A2998 RMK A01 T02420101  RH  041%=      5-min Rain = 0
KVA1 250756Z 23005KT 24/10 A2998 RMK A01 T02410102  RH  041%=      5-min Rain = 0
KVA1 250757Z 23005KT 24/10 A2998 RMK A01 T02410104  RH  042%=      5-min Rain = 0
KVA1 250758Z 24006KT 24/11 A2998 RMK A01 T02400107  RH  043%=      5-min Rain = 0
KVA1 250759Z 23005KT 24/11 A2998 RMK A01 T02400109  RH  043%=      5-min Rain = 0
KVA1 250800Z 24003KT 24/11 A2998 RMK A01 T02410110  RH  044%=      5-min Rain = 0
KVA1 250801Z 24001KT 24/11 A2998 RMK A01 T02410110  RH  044%=      5-min Rain = 0
KVA1 250802Z 21001KT 24/11 A2998 RMK A01 T02400110  RH  044%=      5-min Rain = 0
KVA1 250803Z 23002KT 24/11 A2998 RMK A01 T02400110  RH  044%=      5-min Rain = 0
KVA1 250804Z 23003KT 24/11 A2998 RMK A01 T02390113  RH  045%=      5-min Rain = 0
KVA1 250805Z 23003KT 24/12 A2999 RMK A01 T02390115  RH  046%=      5-min Rain = 0
KVA1 250806Z 22002KT 24/11 A2999 RMK A01 T02390114  RH  046%=      5-min Rain = 0
KVA1 250807Z 23003KT 24/12 A2999 RMK A01 T02390116  RH  046%=      5-min Rain = 0
KVA1 250808Z 22004KT 24/12 A2999 RMK A01 T02380115  RH  046%=      5-min Rain = 0
KVA1 250809Z 22005KT 24/12 A2999 RMK A01 T02370115  RH  046%=      5-min Rain = 0
KVA1 250810Z 22005KT 24/12 A2998 RMK A01 T02370117  RH  047%=      5-min Rain = 0
KVA1 250811Z 21005KT 24/12 A2998 RMK A01 T02360116  RH  047%=      5-min Rain = 0
KVA1 250812Z 20006KT 24/12 A2998 RMK A01 T02350116  RH  047%=      5-min Rain = 0
KVA1 250813Z 21006KT 24/12 A2998 RMK A01 T02350119  RH  048%=      5-min Rain = 0
KVA1 250814Z 21010KT 24/12 A2998 RMK A01 T02350122  RH  049%=      5-min Rain = 0
KVA1 250815Z 20009KT 23/13 A2998 RMK A01 T02340125  RH  050%=      5-min Rain = 0
KVA1 250816Z 21008KT 24/13 A2998 RMK A01 T02350126  RH  050%=      5-min Rain = 0
KVA1 250817Z 21008KT 24/13 A2998 RMK A01 T02350127  RH  051%=      5-min Rain = 0
KVA1 250818Z 21009KT 24/13 A2998 RMK A01 T02350129  RH  051%=      5-min Rain = 0
KVA1 250819Z 21009KT 24/13 A2998 RMK A01 T02350131  RH  052%=      5-min Rain = 0
KVA1 250820Z 20009KT 24/13 A2998 RMK A01 T02350134  RH  053%=      5-min Rain = 0
KVA1 250821Z 21010KT 24/14 A2998 RMK A01 T02350136  RH  054%=      5-min Rain = 0
KVA1 250822Z 20009KT 24/14 A2998 RMK A01 T02350136  RH  054%=      5-min Rain = 0
KVA1 250823Z 20011KT 24/14 A2998 RMK A01 T02350136  RH  054%=      5-min Rain = 0
KVA1 250824Z 21011KT 24/14 A2998 RMK A01 T02360138  RH  054%=      5-min Rain = 0
KVA1 250825Z 20011KT 24/14 A2998 RMK A01 T02360140  RH  055%=      5-min Rain = 0
KVA1 250826Z 19010KT 24/14 A2998 RMK A01 T02360142  RH  056%=      5-min Rain = 0
KVA1 250827Z 20013KT 24/14 A2998 RMK A01 T02360143  RH  056%=      5-min Rain = 0
KVA1 250828Z 19012KT 24/14 A2998 RMK A01 T02350143  RH  056%=      5-min Rain = 0
KVA1 250829Z 19010KT 24/14 A2998 RMK A01 T02350143  RH  056%=      5-min Rain = 0
KVA1 250830Z 18012KT 24/14 A2998 RMK A01 T02350142  RH  056%=      5-min Rain = 0
KVA1 250831Z 18011KT 24/14 A2998 RMK A01 T02350142  RH  056%=      5-min Rain = 0
KVA1 250832Z 18011KT 24/14 A2998 RMK A01 T02360143  RH  056%=      5-min Rain = 0
KVA1 250833Z 18011KT 24/14 A2998 RMK A01 T02350144  RH  057%=      5-min Rain = 0
KVA1 250834Z 18011KT 24/14 A2998 RMK A01 T02350144  RH  057%=      5-min Rain = 0
KVA1 250835Z 18014KT 24/14 A2998 RMK A01 T02350141  RH  055%=      5-min Rain = 0
KVA1 250836Z 18012KT 24/14 A2998 RMK A01 T02360142  RH  056%=      5-min Rain = 0
KVA1 250837Z 18011KT 24/14 A2998 RMK A01 T02370143  RH  056%=      5-min Rain = 0
KVA1 250838Z 18012KT 24/14 A2998 RMK A01 T02370144  RH  056%=      5-min Rain = 0
KVA1 250839Z 18011KT 24/15 A2998 RMK A01 T02370145  RH  056%=      5-min Rain = 0
KVA1 250840Z 18013KT 24/15 A2998 RMK A01 T02360145  RH  057%=      5-min Rain = 0
KVA1 250841Z 18013KT 24/15 A2998 RMK A01 T02360145  RH  057%=      5-min Rain = 0
KVA1 250842Z 18013G18KT 24/15 A2998 RMK A01 T02360146  RH  057%=      5-min Rain = 0
KVA1 250843Z 18014KT 24/14 A2998 RMK A01 T02360143  RH  056%=      5-min Rain = 0
KVA1 250844Z 18014KT 24/14 A2998 RMK A01 T02360144  RH  056%=      5-min Rain = 0
KVA1 250845Z 18013KT 24/14 A2998 RMK A01 T02360144  RH  056%=      5-min Rain = 0
KVA1 250846Z 17014KT 24/14 A2998 RMK A01 T02370143  RH  056%=      5-min Rain = 0
KVA1 250847Z 17016KT 24/14 A2998 RMK A01 T02370144  RH  056%=      5-min Rain = 0
KVA1 250848Z 18016KT 24/15 A2998 RMK A01 T02370145  RH  056%=      5-min Rain = 0
KVA1 250849Z 18014KT 24/15 A2998 RMK A01 T02370146  RH  057%=      5-min Rain = 0
KVA1 250850Z 18014KT 24/15 A2998 RMK A01 T02360146  RH  057%=      5-min Rain = 0
KVA1 250851Z 17014G19KT 24/14 A2998 RMK A01 T02360144  RH  056%=      5-min Rain = 0
KVA1 250852Z 17018G23KT 24/14 A2998 RMK A01 T02370143  RH  056%=      5-min Rain = 0
KVA1 250853Z 17014KT 24/15 A2999 RMK A01 T02370145  RH  056%=      5-min Rain = 0
KVA1 250854Z 17014KT 24/15 A2999 RMK A01 T02370148  RH  057%=      5-min Rain = 0
KVA1 250855Z 17011KT 24/15 A2999 RMK A01 T02360148  RH  058%=      5-min Rain = 0
KVA1 250856Z 17008KT 24/15 A2999 RMK A01 T02350148  RH  058%=      5-min Rain = 0
KVA1 250857Z 17008KT 23/15 A2999 RMK A01 T02340148  RH  059%=      5-min Rain = 0
KVA1 250858Z 18010KT 23/15 A2998 RMK A01 T02330149  RH  059%=      5-min Rain = 0
KVA1 250859Z 18009KT 23/15 A2999 RMK A01 T02320150  RH  060%=      5-min Rain = 0
KVA1 250900Z 17009KT 23/15 A2999 RMK A01 T02320150  RH  060%=      5-min Rain = 0
KVA1 250901Z 19009KT 23/15 A2999 RMK A01 T02310150  RH  060%=      5-min Rain = 0
KVA1 250902Z 20005KT 23/15 A2999 RMK A01 T02300151  RH  061%=      5-min Rain = 0
KVA1 250903Z 19010G15KT 23/15 A2999 RMK A01 T02300151  RH  061%=      5-min Rain = 0
KVA1 250904Z 18009KT 23/15 A2998 RMK A01 T02290151  RH  061%=      5-min Rain = 0
KVA1 250905Z 17012KT 23/15 A2998 RMK A01 T02290150  RH  061%=      5-min Rain = 0
KVA1 250906Z 17012KT 23/15 A2998 RMK A01 T02290150  RH  061%=      5-min Rain = 0
KVA1 250907Z 18014KT 23/15 A2998 RMK A01 T02290151  RH  061%=      5-min Rain = 0
KVA1 250908Z 18015KT 23/15 A2998 RMK A01 T02290151  RH  061%=      5-min Rain = 0
KVA1 250909Z 17013KT 23/15 A2998 RMK A01 T02290152  RH  062%=      5-min Rain = 0
KVA1 250910Z 18016KT 23/15 A2998 RMK A01 T02280152  RH  062%=      5-min Rain = 0
KVA1 250911Z 18013KT 23/15 A2998 RMK A01 T02280152  RH  062%=      5-min Rain = 0
KVA1 250912Z 17012KT 23/15 A2998 RMK A01 T02270152  RH  063%=      5-min Rain = 0
KVA1 250913Z 18014KT 23/15 A2998 RMK A01 T02270153  RH  063%=      5-min Rain = 0
KVA1 250914Z 18019G24KT 23/15 A2998 RMK A01 T02260153  RH  063%=      5-min Rain = 0
KVA1 250915Z 18018KT 23/15 A2998 RMK A01 T02260154  RH  064%=      5-min Rain = 0
KVA1 250916Z 18015G21KT 23/15 A2998 RMK A01 T02260154  RH  064%=      5-min Rain = 0
KVA1 250917Z 19016G21KT 23/15 A2998 RMK A01 T02250154  RH  064%=      5-min Rain = 0
KVA1 250918Z 18015G21KT 23/15 A2998 RMK A01 T02250154  RH  064%=      5-min Rain = 0
KVA1 250919Z 18015KT 23/15 A2998 RMK A01 T02250154  RH  064%=      5-min Rain = 0
KVA1 250920Z 18014KT 22/15 A2998 RMK A01 T02240154  RH  064%=      5-min Rain = 0
KVA1 250921Z 19011G16KT 22/15 A2998 RMK A01 T02240154  RH  065%=      5-min Rain = 0
KVA1 250922Z 18012G19KT 22/15 A2998 RMK A01 T02240154  RH  065%=      5-min Rain = 0
KVA1 250923Z 18016KT 22/15 A2998 RMK A01 T02230154  RH  065%=      5-min Rain = 0
KVA1 250924Z 18015KT 22/15 A2998 RMK A01 T02230153  RH  065%=      5-min Rain = 0
KVA1 250925Z 19013KT 22/15 A2998 RMK A01 T02240153  RH  064%=      5-min Rain = 0
KVA1 250926Z 18014G19KT 22/15 A2998 RMK A01 T02240153  RH  064%=      5-min Rain = 0
KVA1 250927Z 18015G24KT 22/15 A2998 RMK A01 T02230153  RH  064%=      5-min Rain = 0
KVA1 250928Z 18018KT 22/15 A2998 RMK A01 T02240154  RH  064%=      5-min Rain = 0
KVA1 250929Z 18015KT 22/15 A2998 RMK A01 T02240153  RH  064%=      5-min Rain = 0
KVA1 250930Z 19016KT 22/15 A2998 RMK A01 T02240154  RH  064%=      5-min Rain = 0
KVA1 250931Z 19014G22KT 22/15 A2998 RMK A01 T02240153  RH  064%=      5-min Rain = 0
KVA1 250932Z 19017G23KT 22/15 A2998 RMK A01 T02240153  RH  064%=      5-min Rain = 0
KVA1 250933Z 18014G22KT 22/15 A2999 RMK A01 T02240153  RH  064%=      5-min Rain = 0
KVA1 250934Z 18013G18KT 22/15 A2999 RMK A01 T02240153  RH  064%=      5-min Rain = 0
KVA1 250935Z 18016KT 22/15 A2999 RMK A01 T02240153  RH  064%=      5-min Rain = 0
KVA1 250936Z 18018KT 22/15 A2998 RMK A01 T02240153  RH  064%=      5-min Rain = 0
KVA1 250937Z 18017G22KT 22/15 A2999 RMK A01 T02240154  RH  064%=      5-min Rain = 0
KVA1 250938Z 18016G22KT 22/15 A2999 RMK A01 T02230153  RH  065%=      5-min Rain = 0
KVA1 250939Z 18016G21KT 22/15 A2998 RMK A01 T02230153  RH  065%=      5-min Rain = 0
KVA1 250940Z 18017KT 22/15 A2999 RMK A01 T02230153  RH  065%=      5-min Rain = 0
KVA1 250941Z 18013KT 22/15 A2999 RMK A01 T02230154  RH  065%=      5-min Rain = 0
KVA1 250942Z 18015KT 22/15 A2999 RMK A01 T02230153  RH  065%=      5-min Rain = 0
KVA1 250943Z 18015G20KT 22/15 A2999 RMK A01 T02230153  RH  065%=      5-min Rain = 0
KVA1 250944Z 18015KT 22/15 A2999 RMK A01 T02230154  RH  065%=      5-min Rain = 0
KVA1 250945Z 18015KT 22/15 A2999 RMK A01 T02220154  RH  065%=      5-min Rain = 0
KVA1 250946Z 18014KT 22/15 A2999 RMK A01 T02220154  RH  065%=      5-min Rain = 0
KVA1 250947Z 18014KT 22/15 A2999 RMK A01 T02220154  RH  065%=      5-min Rain = 0
KVA1 250948Z 19014G20KT 22/15 A2999 RMK A01 T02220154  RH  065%=      5-min Rain = 0
KVA1 250949Z 18013KT 22/15 A2999 RMK A01 T02220154  RH  065%=      5-min Rain = 0
KVA1 250950Z 18016KT 22/15 A2999 RMK A01 T02210154  RH  065%=      5-min Rain = 0
KVA1 250951Z 19014KT 22/15 A2999 RMK A01 T02210154  RH  066%=      5-min Rain = 0
KVA1 250952Z 19015KT 22/15 A2999 RMK A01 T02210153  RH  066%=      5-min Rain = 0
KVA1 250953Z 18013KT 22/15 A2999 RMK A01 T02210154  RH  066%=      5-min Rain = 0
KVA1 250954Z 19011KT 22/15 A2999 RMK A01 T02210154  RH  066%=      5-min Rain = 0
KVA1 250955Z 20010KT 22/15 A2999 RMK A01 T02200154  RH  066%=      5-min Rain = 0
KVA1 250956Z 19011KT 22/15 A2999 RMK A01 T02200154  RH  066%=      5-min Rain = 0
KVA1 250957Z 19011KT 22/15 A2999 RMK A01 T02190154  RH  066%=      5-min Rain = 0
KVA1 250958Z 20012KT 22/15 A2999 RMK A01 T02190154  RH  066%=      5-min Rain = 0
KVA1 250959Z 20010KT 22/15 A2999 RMK A01 T02190154  RH  066%=      5-min Rain = 0
KVA1 251000Z 20009KT 22/15 A2999 RMK A01 T02190154  RH  067%=      5-min Rain = 0
KVA1 251001Z 19011KT 22/15 A2999 RMK A01 T02190154  RH  067%=      5-min Rain = 0
KVA1 251002Z 20011KT 22/15 A2999 RMK A01 T02190154  RH  067%=      5-min Rain = 0
KVA1 251003Z 20010KT 22/15 A2999 RMK A01 T02180154  RH  067%=      5-min Rain = 0
KVA1 251004Z 19009KT 22/15 A2999 RMK A01 T02180154  RH  067%=      5-min Rain = 0
KVA1 251005Z 19009KT 22/15 A30 RMK A01 T02170154  RH  067%=      5-min Rain = 0
KVA1 251006Z 19011KT 22/15 A30 RMK A01 T02170154  RH  067%=      5-min Rain = 0
KVA1 251007Z 19009KT 22/15 A30 RMK A01 T02170154  RH  067%=      5-min Rain = 0
KVA1 251008Z 19008KT 22/15 A30 RMK A01 T02170154  RH  067%=      5-min Rain = 0
KVA1 251009Z 19009KT 22/15 A30 RMK A01 T02170154  RH  067%=      5-min Rain = 0
KVA1 251010Z 20010KT 22/15 A30 RMK A01 T02170154  RH  068%=      5-min Rain = 0
KVA1 251011Z 20008KT 22/15 A30 RMK A01 T02170154  RH  068%=      5-min Rain = 0
KVA1 251012Z 20008KT 22/15 A30 RMK A01 T02170154  RH  068%=      5-min Rain = 0
KVA1 251013Z 21008KT 22/16 A30 RMK A01 T02170155  RH  068%=      5-min Rain = 0
KVA1 251014Z 21006KT 22/15 A30 RMK A01 T02160154  RH  068%=      5-min Rain = 0
KVA1 251015Z 22008KT 22/16 A30 RMK A01 T02160155  RH  068%=      5-min Rain = 0
KVA1 251016Z 22006KT 22/16 A30 RMK A01 T02150155  RH  068%=      5-min Rain = 0
KVA1 251017Z 22007KT 22/16 A30 RMK A01 T02150155  RH  069%=      5-min Rain = 0
KVA1 251018Z 22006KT 21/16 A30 RMK A01 T02140155  RH  069%=      5-min Rain = 0
KVA1 251019Z 23008KT 21/16 A30 RMK A01 T02140155  RH  069%=      5-min Rain = 0
KVA1 251020Z 21009KT 21/16 A30 RMK A01 T02140155  RH  069%=      5-min Rain = 0
KVA1 251021Z 22009KT 21/16 A30 RMK A01 T02130155  RH  069%=      5-min Rain = 0
KVA1 251022Z 21007KT 21/16 A30 RMK A01 T02130155  RH  069%=      5-min Rain = 0
KVA1 251023Z 21006KT 21/16 A30 RMK A01 T02130155  RH  069%=      5-min Rain = 0
KVA1 251024Z 22007KT 21/16 A30 RMK A01 T02130155  RH  069%=      5-min Rain = 0
KVA1 251025Z 22007KT 21/16 A30 RMK A01 T02130155  RH  070%=      5-min Rain = 0
KVA1 251026Z 21007KT 21/16 A30 RMK A01 T02130155  RH  070%=      5-min Rain = 0
KVA1 251027Z 21007KT 21/16 A30 RMK A01 T02130155  RH  070%=      5-min Rain = 0
KVA1 251028Z 21007KT 21/16 A30 RMK A01 T02130155  RH  070%=      5-min Rain = 0
KVA1 251029Z 21006KT 21/16 A30 RMK A01 T02130155  RH  070%=      5-min Rain = 0
KVA1 251030Z 21007KT 21/16 A3001 RMK A01 T02120155  RH  070%=      5-min Rain = 0
KVA1 251031Z 21008KT 21/16 A3001 RMK A01 T02120155  RH  070%=      5-min Rain = 0
KVA1 251032Z 21007KT 21/16 A3001 RMK A01 T02130155  RH  070%=      5-min Rain = 0
KVA1 251033Z 21006KT 21/16 A3001 RMK A01 T02130155  RH  070%=      5-min Rain = 0
KVA1 251034Z 21007KT 21/16 A3001 RMK A01 T02130155  RH  070%=      5-min Rain = 0
KVA1 251035Z 21009KT 21/16 A3001 RMK A01 T02130155  RH  070%=      5-min Rain = 0
KVA1 251036Z 20008KT 21/16 A3001 RMK A01 T02130155  RH  070%=      5-min Rain = 0
KVA1 251037Z 20011KT 21/15 A3001 RMK A01 T02130154  RH  069%=      5-min Rain = 0
KVA1 251038Z 20010KT 21/16 A3001 RMK A01 T02130155  RH  069%=      5-min Rain = 0
KVA1 251039Z 19011KT 21/16 A3001 RMK A01 T02130155  RH  069%=      5-min Rain = 0
KVA1 251040Z 19010KT 21/15 A3001 RMK A01 T02130154  RH  069%=      5-min Rain = 0
KVA1 251041Z 20008KT 21/15 A3001 RMK A01 T02130154  RH  069%=      5-min Rain = 0
KVA1 251042Z 20009KT 21/15 A3001 RMK A01 T02130154  RH  069%=      5-min Rain = 0
KVA1 251043Z 20009KT 21/15 A3001 RMK A01 T02130154  RH  069%=      5-min Rain = 0
KVA1 251044Z 20010KT 21/15 A3001 RMK A01 T02130154  RH  069%=      5-min Rain = 0
KVA1 251045Z 20008KT 21/15 A3001 RMK A01 T02130154  RH  069%=      5-min Rain = 0
KVA1 251046Z 19008KT 21/15 A3001 RMK A01 T02130154  RH  069%=      5-min Rain = 0
KVA1 251047Z 18008G13KT 21/16 A3001 RMK A01 T02120155  RH  070%=      5-min Rain = 0
KVA1 251048Z 18008KT 21/16 A3001 RMK A01 T02120155  RH  070%=      5-min Rain = 0
KVA1 251049Z 19009KT 21/16 A3001 RMK A01 T02120155  RH  070%=      5-min Rain = 0
KVA1 251050Z 19009KT 21/16 A3001 RMK A01 T02120155  RH  070%=      5-min Rain = 0
KVA1 251051Z 18009KT 21/16 A3001 RMK A01 T02120155  RH  070%=      5-min Rain = 0
KVA1 251052Z 18009KT 21/15 A3001 RMK A01 T02120154  RH  070%=      5-min Rain = 0
KVA1 251053Z 18007KT 21/15 A3001 RMK A01 T02120154  RH  070%=      5-min Rain = 0
KVA1 251054Z 19008KT 21/16 A3001 RMK A01 T02120155  RH  070%=      5-min Rain = 0
KVA1 251055Z 19007KT 21/15 A3001 RMK A01 T02120154  RH  070%=      5-min Rain = 0
KVA1 251056Z 19007KT 21/16 A3001 RMK A01 T02120155  RH  070%=      5-min Rain = 0
KVA1 251057Z 19007KT 21/15 A3001 RMK A01 T02120154  RH  070%=      5-min Rain = 0
KVA1 251058Z 19007KT 21/16 A3001 RMK A01 T02120155  RH  070%=      5-min Rain = 0
KVA1 251059Z 20006KT 21/16 A3001 RMK A01 T02120155  RH  070%=      5-min Rain = 0
KVA1 251100Z 20006KT 21/16 A3001 RMK A01 T02120155  RH  070%=      5-min Rain = 0
KVA1 251101Z 20005KT 21/16 A3001 RMK A01 T02110155  RH  070%=      5-min Rain = 0
KVA1 251102Z 21009KT 21/16 A3001 RMK A01 T02110155  RH  070%=      5-min Rain = 0
KVA1 251103Z 21008KT 21/16 A3001 RMK A01 T02110155  RH  070%=      5-min Rain = 0
KVA1 251104Z 21009KT 21/16 A3001 RMK A01 T02110155  RH  070%=      5-min Rain = 0
KVA1 251105Z 21008KT 21/16 A3001 RMK A01 T02110155  RH  070%=      5-min Rain = 0
KVA1 251106Z 20007KT 21/16 A3001 RMK A01 T02110155  RH  070%=      5-min Rain = 0
KVA1 251107Z 21008KT 21/16 A3001 RMK A01 T02110155  RH  070%=      5-min Rain = 0
KVA1 251108Z 20007KT 21/16 A3001 RMK A01 T02110155  RH  070%=      5-min Rain = 0
KVA1 251109Z 21008KT 21/16 A3001 RMK A01 T02110155  RH  070%=      5-min Rain = 0
KVA1 251110Z 20008KT 21/16 A3001 RMK A01 T02110155  RH  071%=      5-min Rain = 0
KVA1 251111Z 21007KT 21/16 A3001 RMK A01 T02110155  RH  071%=      5-min Rain = 0
KVA1 251112Z 20008KT 21/16 A3001 RMK A01 T02110155  RH  071%=      5-min Rain = 0
KVA1 251113Z 21007KT 21/16 A3001 RMK A01 T02110155  RH  071%=      5-min Rain = 0
KVA1 251114Z 21008KT 21/16 A3001 RMK A01 T02100155  RH  071%=      5-min Rain = 0
KVA1 251115Z 21007KT 21/16 A3001 RMK A01 T02100156  RH  071%=      5-min Rain = 0
KVA1 251116Z 22007KT 21/16 A3001 RMK A01 T02100155  RH  071%=      5-min Rain = 0
KVA1 251117Z 22007KT 21/16 A3001 RMK A01 T02100155  RH  071%=      5-min Rain = 0
KVA1 251118Z 22008KT 21/16 A3001 RMK A01 T02090155  RH  071%=      5-min Rain = 0
KVA1 251119Z 21008KT 21/16 A3001 RMK A01 T02090155  RH  071%=      5-min Rain = 0
KVA1 251120Z 22008KT 21/16 A3001 RMK A01 T02080155  RH  071%=      5-min Rain = 0
KVA1 251121Z 22008KT 21/16 A3001 RMK A01 T02080155  RH  072%=      5-min Rain = 0
KVA1 251122Z 21007KT 21/16 A3001 RMK A01 T02080155  RH  072%=      5-min Rain = 0
KVA1 251123Z 21008KT 21/16 A3001 RMK A01 T02070155  RH  072%=      5-min Rain = 0
KVA1 251124Z 21009KT 21/16 A3001 RMK A01 T02070155  RH  072%=      5-min Rain = 0
KVA1 251125Z 21008KT 21/16 A3001 RMK A01 T02070155  RH  072%=      5-min Rain = 0
KVA1 251126Z 21009KT 21/16 A3001 RMK A01 T02070155  RH  072%=      5-min Rain = 0
KVA1 251127Z 20008KT 21/16 A3001 RMK A01 T02070155  RH  072%=      5-min Rain = 0
KVA1 251128Z 21011KT 21/16 A3001 RMK A01 T02070156  RH  072%=      5-min Rain = 0
KVA1 251129Z 21008KT 21/16 A3001 RMK A01 T02070156  RH  072%=      5-min Rain = 0
KVA1 251130Z 21009KT 21/16 A3001 RMK A01 T02070156  RH  072%=      5-min Rain = 0
KVA1 251131Z 21008KT 21/16 A3001 RMK A01 T02070156  RH  073%=      5-min Rain = 0
KVA1 251132Z 21008KT 21/16 A3001 RMK A01 T02060156  RH  073%=      5-min Rain = 0
KVA1 251133Z 21008KT 21/16 A3001 RMK A01 T02060156  RH  073%=      5-min Rain = 0
KVA1 251134Z 21009KT 21/16 A3001 RMK A01 T02060156  RH  073%=      5-min Rain = 0
KVA1 251135Z 21008KT 21/16 A3001 RMK A01 T02060156  RH  073%=      5-min Rain = 0
KVA1 251136Z 21007KT 21/16 A3001 RMK A01 T02060156  RH  073%=      5-min Rain = 0
KVA1 251137Z 21008KT 21/16 A3002 RMK A01 T02060156  RH  073%=      5-min Rain = 0
KVA1 251138Z 21008KT 21/16 A3002 RMK A01 T02060156  RH  073%=      5-min Rain = 0
KVA1 251139Z 21007KT 21/16 A3002 RMK A01 T02050156  RH  073%=      5-min Rain = 0
KVA1 251140Z 21008G13KT 21/16 A3002 RMK A01 T02050156  RH  073%=      5-min Rain = 0
KVA1 251141Z 21007KT 21/16 A3002 RMK A01 T02050156  RH  073%=      5-min Rain = 0
KVA1 251142Z 21007KT 21/16 A3002 RMK A01 T02050156  RH  074%=      5-min Rain = 0
KVA1 251143Z 21006KT 20/16 A3002 RMK A01 T02040156  RH  074%=      5-min Rain = 0
KVA1 251144Z 21007KT 20/16 A3002 RMK A01 T02040156  RH  074%=      5-min Rain = 0
KVA1 251145Z 22006KT 20/16 A3002 RMK A01 T02040156  RH  074%=      5-min Rain = 0
KVA1 251146Z 21005KT 20/16 A3002 RMK A01 T02030156  RH  074%=      5-min Rain = 0
KVA1 251147Z 20003KT 20/16 A3002 RMK A01 T02030156  RH  074%=      5-min Rain = 0
KVA1 251148Z 21004KT 20/16 A3002 RMK A01 T02030155  RH  074%=      5-min Rain = 0
KVA1 251149Z 21007KT 20/16 A3003 RMK A01 T02030156  RH  074%=      5-min Rain = 0
KVA1 251150Z 21006KT 20/16 A3003 RMK A01 T02020156  RH  075%=      5-min Rain = 0
KVA1 251151Z 21006KT 20/16 A3003 RMK A01 T02030156  RH  075%=      5-min Rain = 0
KVA1 251152Z 21005KT 20/16 A3003 RMK A01 T02020156  RH  075%=      5-min Rain = 0
KVA1 251153Z 21005KT 20/16 A3003 RMK A01 T02020156  RH  075%=      5-min Rain = 0
KVA1 251154Z 21005KT 20/16 A3003 RMK A01 T02020156  RH  075%=      5-min Rain = 0
KVA1 251155Z 21005KT 20/16 A3003 RMK A01 T02020156  RH  075%=      5-min Rain = 0
KVA1 251156Z 21004KT 20/16 A3003 RMK A01 T02020156  RH  075%=      5-min Rain = 0
KVA1 251157Z 23006KT 20/16 A3003 RMK A01 T02020156  RH  075%=      5-min Rain = 0
KVA1 251158Z 22005KT 20/16 A3003 RMK A01 T02020157  RH  075%=      5-min Rain = 0
KVA1 251159Z 22007KT 20/16 A3003 RMK A01 T02020156  RH  075%=      5-min Rain = 0
KVA1 251200Z 22006KT 20/16 A3003 RMK A01 T02020156  RH  075%=      5-min Rain = 0
KVA1 251201Z 22005KT 20/16 A3003 RMK A01 T02020156  RH  075%=      5-min Rain = 0
KVA1 251202Z 22004KT 20/16 A3003 RMK A01 T02020156  RH  075%=      5-min Rain = 0
KVA1 251203Z 22004KT 20/16 A3003 RMK A01 T02020156  RH  075%=      5-min Rain = 0
KVA1 251204Z 22005KT 20/16 A3003 RMK A01 T02020156  RH  075%=      5-min Rain = 0
KVA1 251205Z 22005KT 20/16 A3003 RMK A01 T02020156  RH  075%=      5-min Rain = 0
KVA1 251206Z 23006KT 20/16 A3003 RMK A01 T02020156  RH  075%=      5-min Rain = 0
KVA1 251207Z 23005KT 20/16 A3003 RMK A01 T02020156  RH  075%=      5-min Rain = 0
KVA1 251208Z 23004KT 20/16 A3003 RMK A01 T02010156  RH  075%=      5-min Rain = 0
KVA1 251209Z 23004KT 20/16 A3003 RMK A01 T02020156  RH  075%=      5-min Rain = 0
KVA1 251210Z 24004KT 20/16 A3003 RMK A01 T02020156  RH  075%=      5-min Rain = 0
KVA1 251211Z 24004KT 20/16 A3003 RMK A01 T02020156  RH  075%=      5-min Rain = 0
KVA1 251212Z 24004KT 20/16 A3003 RMK A01 T02020156  RH  075%=      5-min Rain = 0
KVA1 251213Z 23005KT 20/16 A3003 RMK A01 T02010155  RH  075%=      5-min Rain = 0
KVA1 251214Z 24005KT 20/16 A3003 RMK A01 T02010155  RH  075%=      5-min Rain = 0
KVA1 251215Z 24005KT 20/16 A3003 RMK A01 T02010156  RH  075%=      5-min Rain = 0
KVA1 251216Z 24006KT 20/16 A3003 RMK A01 T02010156  RH  075%=      5-min Rain = 0
KVA1 251217Z 24006KT 20/16 A3003 RMK A01 T02010156  RH  075%=      5-min Rain = 0
KVA1 251218Z 24006KT 20/16 A3003 RMK A01 T02010156  RH  075%=      5-min Rain = 0
KVA1 251219Z 24007KT 20/16 A3003 RMK A01 T02010155  RH  075%=      5-min Rain = 0
KVA1 251220Z 24006KT 20/16 A3003 RMK A01 T02010155  RH  075%=      5-min Rain = 0
KVA1 251221Z 23007KT 20/16 A3003 RMK A01 T02010155  RH  075%=      5-min Rain = 0
KVA1 251222Z 23006KT 20/16 A3003 RMK A01 T02010156  RH  075%=      5-min Rain = 0
KVA1 251223Z 23007KT 20/16 A3003 RMK A01 T02020156  RH  075%=      5-min Rain = 0
KVA1 251224Z 23007KT 20/16 A3003 RMK A01 T02020155  RH  075%=      5-min Rain = 0
KVA1 251225Z 23006KT 20/16 A3003 RMK A01 T02020155  RH  075%=      5-min Rain = 0
KVA1 251226Z 23007KT 20/16 A3003 RMK A01 T02020156  RH  074%=      5-min Rain = 0
KVA1 251227Z 23007KT 20/16 A3003 RMK A01 T02030156  RH  074%=      5-min Rain = 0
KVA1 251228Z 24006KT 20/16 A3003 RMK A01 T02030156  RH  074%=      5-min Rain = 0
KVA1 251229Z 23007KT 20/16 A3003 RMK A01 T02030155  RH  074%=      5-min Rain = 0
KVA1 251230Z 23008KT 20/16 A3003 RMK A01 T02030155  RH  074%=      5-min Rain = 0
KVA1 251231Z 23008KT 20/16 A3003 RMK A01 T02030156  RH  074%=      5-min Rain = 0
KVA1 251232Z 23008KT 20/16 A3003 RMK A01 T02040156  RH  074%=      5-min Rain = 0
KVA1 251233Z 23008KT 20/16 A3003 RMK A01 T02040156  RH  074%=      5-min Rain = 0
KVA1 251234Z 22008KT 20/16 A3003 RMK A01 T02040155  RH  074%=      5-min Rain = 0
KVA1 251235Z 22009KT 20/16 A3003 RMK A01 T02040156  RH  074%=      5-min Rain = 0
KVA1 251236Z 22007KT 20/16 A3003 RMK A01 T02040156  RH  073%=      5-min Rain = 0
KVA1 251237Z 22009KT 21/16 A3003 RMK A01 T02050156  RH  073%=      5-min Rain = 0
KVA1 251238Z 21009KT 21/16 A3003 RMK A01 T02050156  RH  073%=      5-min Rain = 0
KVA1 251239Z 21010KT 21/16 A3003 RMK A01 T02050156  RH  073%=      5-min Rain = 0
KVA1 251240Z 21007KT 21/16 A3003 RMK A01 T02050156  RH  073%=      5-min Rain = 0
KVA1 251241Z 21008KT 21/16 A3003 RMK A01 T02060156  RH  073%=      5-min Rain = 0
KVA1 251242Z 21007KT 21/16 A3004 RMK A01 T02060156  RH  073%=      5-min Rain = 0
KVA1 251243Z 21008KT 21/16 A3004 RMK A01 T02060156  RH  073%=      5-min Rain = 0
KVA1 251244Z 21007KT 21/16 A3004 RMK A01 T02070156  RH  073%=      5-min Rain = 0
KVA1 251245Z 21009KT 21/16 A3004 RMK A01 T02070156  RH  072%=      5-min Rain = 0
KVA1 251246Z 20008KT 21/16 A3004 RMK A01 T02070156  RH  072%=      5-min Rain = 0
KVA1 251247Z 21007KT 21/16 A3004 RMK A01 T02070156  RH  072%=      5-min Rain = 0
KVA1 251248Z 20007KT 21/16 A3004 RMK A01 T02080156  RH  072%=      5-min Rain = 0
KVA1 251249Z 21008KT 21/16 A3004 RMK A01 T02080156  RH  072%=      5-min Rain = 0
KVA1 251250Z 21009KT 21/16 A3004 RMK A01 T02070155  RH  072%=      5-min Rain = 0
KVA1 251251Z 21008KT 21/16 A3004 RMK A01 T02080156  RH  072%=      5-min Rain = 0
KVA1 251252Z 20008KT 21/16 A3004 RMK A01 T02080156  RH  072%=      5-min Rain = 0
KVA1 251253Z 20009KT 21/16 A3004 RMK A01 T02080156  RH  072%=      5-min Rain = 0
KVA1 251254Z 20008KT 21/16 A3004 RMK A01 T02080156  RH  072%=      5-min Rain = 0
KVA1 251255Z 21007KT 21/16 A3004 RMK A01 T02090156  RH  072%=      5-min Rain = 0
KVA1 251256Z 20007KT 21/16 A3004 RMK A01 T02080156  RH  072%=      5-min Rain = 0
KVA1 251257Z 21008KT 21/16 A3004 RMK A01 T02090156  RH  072%=      5-min Rain = 0
KVA1 251258Z 20009KT 21/16 A3004 RMK A01 T02090156  RH  072%=      5-min Rain = 0
KVA1 251259Z 20007KT 21/16 A3004 RMK A01 T02090156  RH  071%=      5-min Rain = 0
KVA1 251300Z 20006KT 21/16 A3004 RMK A01 T02090156  RH  072%=      5-min Rain = 0
KVA1 251301Z 20007KT 21/16 A3004 RMK A01 T02100156  RH  071%=      5-min Rain = 0
KVA1 251302Z 20008KT 21/16 A3005 RMK A01 T02100156  RH  071%=      5-min Rain = 0
KVA1 251303Z 20006KT 21/16 A3005 RMK A01 T02110156  RH  071%=      5-min Rain = 0
KVA1 251304Z 20006KT 21/16 A3005 RMK A01 T02100156  RH  071%=      5-min Rain = 0
KVA1 251305Z 19008KT 21/16 A3005 RMK A01 T02110156  RH  071%=      5-min Rain = 0
KVA1 251306Z 19008KT 21/16 A3005 RMK A01 T02110156  RH  071%=      5-min Rain = 0
KVA1 251307Z 20008KT 21/16 A3005 RMK A01 T02110156  RH  071%=      5-min Rain = 0
KVA1 251308Z 19008KT 21/16 A3005 RMK A01 T02120157  RH  071%=      5-min Rain = 0
KVA1 251309Z 19009KT 21/16 A3005 RMK A01 T02120157  RH  071%=      5-min Rain = 0
KVA1 251310Z 19008KT 21/16 A3005 RMK A01 T02120157  RH  071%=      5-min Rain = 0
KVA1 251311Z 19006KT 21/16 A3005 RMK A01 T02120157  RH  071%=      5-min Rain = 0
KVA1 251312Z 20005KT 21/16 A3005 RMK A01 T02130157  RH  070%=      5-min Rain = 0
KVA1 251313Z 20006KT 21/16 A3005 RMK A01 T02140157  RH  070%=      5-min Rain = 0
KVA1 251314Z 19007KT 22/16 A3005 RMK A01 T02150157  RH  070%=      5-min Rain = 0
KVA1 251315Z 19008KT 22/16 A3005 RMK A01 T02150157  RH  070%=      5-min Rain = 0
KVA1 251316Z 18008KT 22/16 A3005 RMK A01 T02150157  RH  070%=      5-min Rain = 0
KVA1 251317Z 19008KT 21/16 A3005 RMK A01 T02140157  RH  070%=      5-min Rain = 0
KVA1 251318Z 19006KT 21/16 A3005 RMK A01 T02140157  RH  070%=      5-min Rain = 0
KVA1 251319Z 19007KT 21/16 A3005 RMK A01 T02140157  RH  070%=      5-min Rain = 0
KVA1 251320Z 19006KT 22/16 A3005 RMK A01 T02150157  RH  070%=      5-min Rain = 0
KVA1 251321Z 19008KT 22/16 A3005 RMK A01 T02160158  RH  069%=      5-min Rain = 0
KVA1 251322Z 19007KT 22/16 A3005 RMK A01 T02160157  RH  069%=      5-min Rain = 0
KVA1 251323Z 18007KT 22/16 A3005 RMK A01 T02160158  RH  069%=      5-min Rain = 0
KVA1 251324Z 18008KT 22/16 A3005 RMK A01 T02160157  RH  069%=      5-min Rain = 0
KVA1 251325Z 18006KT 22/16 A3005 RMK A01 T02170157  RH  069%=      5-min Rain = 0
KVA1 251326Z 18008KT 22/16 A3005 RMK A01 T02170157  RH  069%=      5-min Rain = 0
KVA1 251327Z 18008KT 22/16 A3005 RMK A01 T02180158  RH  068%=      5-min Rain = 0
KVA1 251328Z 18008KT 22/16 A3005 RMK A01 T02190158  RH  068%=      5-min Rain = 0
KVA1 251329Z 18007KT 22/16 A3005 RMK A01 T02190158  RH  068%=      5-min Rain = 0
KVA1 251330Z 18007KT 22/16 A3005 RMK A01 T02190158  RH  068%=      5-min Rain = 0
KVA1 251331Z 18006KT 22/16 A3005 RMK A01 T02190158  RH  068%=      5-min Rain = 0
KVA1 251332Z 18007KT 22/16 A3005 RMK A01 T02200158  RH  068%=      5-min Rain = 0
KVA1 251333Z 18007KT 22/16 A3005 RMK A01 T02200158  RH  068%=      5-min Rain = 0
KVA1 251334Z 19007KT 22/16 A3005 RMK A01 T02210158  RH  067%=      5-min Rain = 0
KVA1 251335Z 18007KT 22/16 A3005 RMK A01 T02230159  RH  067%=      5-min Rain = 0
KVA1 251336Z 18009KT 22/16 A3005 RMK A01 T02240159  RH  066%=      5-min Rain = 0
KVA1 251337Z 18011KT 22/16 A3005 RMK A01 T02240158  RH  066%=      5-min Rain = 0
KVA1 251338Z 18008KT 22/16 A3005 RMK A01 T02240158  RH  066%=      5-min Rain = 0
KVA1 251339Z 18009KT 22/16 A3005 RMK A01 T02240158  RH  066%=      5-min Rain = 0
KVA1 251340Z 18009KT 23/16 A3005 RMK A01 T02250158  RH  066%=      5-min Rain = 0
KVA1 251341Z 18008KT 22/16 A3005 RMK A01 T02240159  RH  066%=      5-min Rain = 0
KVA1 251342Z 19008KT 23/16 A3006 RMK A01 T02250159  RH  066%=      5-min Rain = 0
KVA1 251343Z 19010KT 23/16 A3006 RMK A01 T02250158  RH  066%=      5-min Rain = 0
KVA1 251344Z 18011KT 23/16 A3006 RMK A01 T02260159  RH  066%=      5-min Rain = 0
KVA1 251345Z 18011KT 23/16 A3006 RMK A01 T02250159  RH  066%=      5-min Rain = 0
KVA1 251346Z 18011KT 23/16 A3006 RMK A01 T02250159  RH  066%=      5-min Rain = 0
KVA1 251347Z 19011KT 23/16 A3006 RMK A01 T02250159  RH  066%=      5-min Rain = 0
KVA1 251348Z 17009KT 23/16 A3006 RMK A01 T02260159  RH  066%=      5-min Rain = 0
KVA1 251349Z 18011KT 23/16 A3006 RMK A01 T02270159  RH  065%=      5-min Rain = 0
KVA1 251350Z 18009KT 23/16 A3006 RMK A01 T02270159  RH  065%=      5-min Rain = 0
KVA1 251351Z 18008KT 23/16 A3006 RMK A01 T02270159  RH  065%=      5-min Rain = 0
KVA1 251352Z 18008KT 23/16 A3006 RMK A01 T02290160  RH  065%=      5-min Rain = 0
KVA1 251353Z 17008KT 23/16 A3006 RMK A01 T02320160  RH  064%=      5-min Rain = 0
KVA1 251354Z 17009KT 23/16 A3006 RMK A01 T02330160  RH  063%=      5-min Rain = 0
KVA1 251355Z 18011KT 23/16 A3006 RMK A01 T02340159  RH  063%=      5-min Rain = 0
KVA1 251356Z 18008KT 23/16 A3006 RMK A01 T02340159  RH  063%=      5-min Rain = 0
KVA1 251357Z 19011KT 23/16 A3006 RMK A01 T02340159  RH  063%=      5-min Rain = 0
KVA1 251358Z 17012KT 23/16 A3006 RMK A01 T02340159  RH  063%=      5-min Rain = 0
KVA1 251359Z 17011KT 23/16 A3006 RMK A01 T02330158  RH  063%=      5-min Rain = 0
KVA1 251400Z 16013KT 23/16 A3006 RMK A01 T02340158  RH  062%=      5-min Rain = 0
KVA1 251401Z 17012G17KT 24/16 A3006 RMK A01 T02350158  RH  062%=      5-min Rain = 0
KVA1 251402Z 17014KT 23/16 A3006 RMK A01 T02340158  RH  062%=      5-min Rain = 0
KVA1 251403Z 17012KT 23/16 A3006 RMK A01 T02330158  RH  062%=      5-min Rain = 0
KVA1 251404Z 17011KT 23/16 A3006 RMK A01 T02330158  RH  063%=      5-min Rain = 0
KVA1 251405Z 17012KT 23/16 A3006 RMK A01 T02340159  RH  062%=      5-min Rain = 0
KVA1 251406Z 17012KT 24/16 A3006 RMK A01 T02350158  RH  062%=      5-min Rain = 0
KVA1 251407Z 17013KT 24/16 A3006 RMK A01 T02360158  RH  062%=      5-min Rain = 0
KVA1 251408Z 18013KT 24/16 A3006 RMK A01 T02360158  RH  062%=      5-min Rain = 0
KVA1 251409Z 17012KT 24/16 A3006 RMK A01 T02350158  RH  062%=      5-min Rain = 0
KVA1 251410Z 17013KT 24/16 A3006 RMK A01 T02360158  RH  062%=      5-min Rain = 0
KVA1 251411Z 17013KT 24/16 A3006 RMK A01 T02370158  RH  061%=      5-min Rain = 0
KVA1 251412Z 17012KT 24/16 A3006 RMK A01 T02370158  RH  061%=      5-min Rain = 0
KVA1 251413Z 16014KT 24/16 A3006 RMK A01 T02370158  RH  061%=      5-min Rain = 0
KVA1 251414Z 17012KT 24/16 A3006 RMK A01 T02370158  RH  061%=      5-min Rain = 0
KVA1 251415Z 17010KT 24/16 A3006 RMK A01 T02370158  RH  061%=      5-min Rain = 0
KVA1 251416Z 16012KT 24/16 A3006 RMK A01 T02390159  RH  061%=      5-min Rain = 0
KVA1 251417Z 17013KT 24/16 A3006 RMK A01 T02400159  RH  060%=      5-min Rain = 0
KVA1 251418Z 16011KT 24/16 A3006 RMK A01 T02400158  RH  060%=      5-min Rain = 0
KVA1 251419Z 17012KT 24/16 A3006 RMK A01 T02400158  RH  060%=      5-min Rain = 0
KVA1 251420Z 17012KT 24/16 A3006 RMK A01 T02400158  RH  060%=      5-min Rain = 0
KVA1 251421Z 17013KT 24/16 A3006 RMK A01 T02400158  RH  060%=      5-min Rain = 0
KVA1 251422Z 17012KT 24/16 A3006 RMK A01 T02390158  RH  060%=      5-min Rain = 0
KVA1 251423Z 16011KT 24/16 A3006 RMK A01 T02390158  RH  060%=      5-min Rain = 0
KVA1 251424Z 16012KT 24/16 A3006 RMK A01 T02400158  RH  060%=      5-min Rain = 0
KVA1 251425Z 17011KT 24/16 A3006 RMK A01 T02400158  RH  060%=      5-min Rain = 0
KVA1 251426Z 17012KT 24/16 A3006 RMK A01 T02410158  RH  060%=      5-min Rain = 0
KVA1 251427Z 16012KT 24/16 A3006 RMK A01 T02410158  RH  060%=      5-min Rain = 0
KVA1 251428Z 16012KT 24/16 A3006 RMK A01 T02410158  RH  060%=      5-min Rain = 0
KVA1 251429Z 16012KT 24/16 A3006 RMK A01 T02410158  RH  060%=      5-min Rain = 0
KVA1 251430Z 16011KT 24/16 A3006 RMK A01 T02410158  RH  060%=      5-min Rain = 0
KVA1 251431Z 15011KT 24/16 A3006 RMK A01 T02420158  RH  059%=      5-min Rain = 0
KVA1 251432Z 17010KT 24/16 A3006 RMK A01 T02420158  RH  059%=      5-min Rain = 0
KVA1 251433Z 16009KT 24/16 A3006 RMK A01 T02440159  RH  059%=      5-min Rain = 0
KVA1 251434Z 17010KT 25/16 A3006 RMK A01 T02450159  RH  058%=      5-min Rain = 0
KVA1 251435Z 16009KT 25/16 A3006 RMK A01 T02460159  RH  058%=      5-min Rain = 0
KVA1 251436Z 15011KT 25/16 A3006 RMK A01 T02470158  RH  058%=      5-min Rain = 0
KVA1 251437Z 16012KT 25/16 A3006 RMK A01 T02480158  RH  057%=      5-min Rain = 0
KVA1 251438Z 17011KT 25/16 A3006 RMK A01 T02470158  RH  058%=      5-min Rain = 0
KVA1 251439Z 17013KT 25/16 A3006 RMK A01 T02470158  RH  057%=      5-min Rain = 0
KVA1 251440Z 16013KT 25/16 A3006 RMK A01 T02470158  RH  057%=      5-min Rain = 0
KVA1 251441Z 15012KT 25/16 A3006 RMK A01 T02470158  RH  058%=      5-min Rain = 0
KVA1 251442Z 16013KT 25/16 A3006 RMK A01 T02470157  RH  057%=      5-min Rain = 0
KVA1 251443Z 17012KT 25/16 A3007 RMK A01 T02480157  RH  057%=      5-min Rain = 0
KVA1 251444Z 17012KT 25/16 A3007 RMK A01 T02480158  RH  057%=      5-min Rain = 0
KVA1 251445Z 16011KT 25/16 A3007 RMK A01 T02490158  RH  057%=      5-min Rain = 0
KVA1 251446Z 16013KT 25/16 A3007 RMK A01 T02500158  RH  057%=      5-min Rain = 0
KVA1 251447Z 17012KT 25/16 A3007 RMK A01 T02510158  RH  056%=      5-min Rain = 0
KVA1 251448Z 17011KT 25/16 A3007 RMK A01 T02510158  RH  056%=      5-min Rain = 0
KVA1 251449Z 16011KT 25/16 A3007 RMK A01 T02520158  RH  056%=      5-min Rain = 0
KVA1 251450Z 17012KT 25/16 A3007 RMK A01 T02530158  RH  056%=      5-min Rain = 0
KVA1 251451Z 17011KT 25/16 A3007 RMK A01 T02530156  RH  055%=      5-min Rain = 0
KVA1 251452Z 17010KT 25/16 A3007 RMK A01 T02530156  RH  055%=      5-min Rain = 0
KVA1 251453Z 17011KT 25/16 A3007 RMK A01 T02520157  RH  055%=      5-min Rain = 0
KVA1 251454Z 16012KT 25/16 A3007 RMK A01 T02530157  RH  055%=      5-min Rain = 0
KVA1 251455Z 16009KT 25/16 A3007 RMK A01 T02520158  RH  056%=      5-min Rain = 0
KVA1 251456Z 17012KT 25/16 A3007 RMK A01 T02520157  RH  055%=      5-min Rain = 0
KVA1 251457Z 18012KT 25/16 A3007 RMK A01 T02530156  RH  055%=      5-min Rain = 0
KVA1 251458Z 17011KT 25/16 A3007 RMK A01 T02530155  RH  055%=      5-min Rain = 0
KVA1 251459Z 18010KT 25/16 A3007 RMK A01 T02530155  RH  055%=      5-min Rain = 0
KVA1 251500Z 18011KT 25/16 A3007 RMK A01 T02520156  RH  055%=      5-min Rain = 0
KVA1 251501Z 18011KT 25/16 A3007 RMK A01 T02530157  RH  055%=      5-min Rain = 0
KVA1 251502Z 17009KT 25/16 A3007 RMK A01 T02540156  RH  054%=      5-min Rain = 0
KVA1 251503Z 16008KT 25/16 A3007 RMK A01 T02540156  RH  055%=      5-min Rain = 0
KVA1 251504Z 17009KT 25/16 A3007 RMK A01 T02540157  RH  055%=      5-min Rain = 0
KVA1 251505Z 18009KT 26/16 A3007 RMK A01 T02560156  RH  054%=      5-min Rain = 0
KVA1 251506Z 16008KT 26/16 A3007 RMK A01 T02570156  RH  054%=      5-min Rain = 0
KVA1 251507Z 16011KT 26/16 A3007 RMK A01 T02580156  RH  053%=      5-min Rain = 0
KVA1 251508Z 18009KT 26/16 A3007 RMK A01 T02580156  RH  053%=      5-min Rain = 0
KVA1 251509Z 17008KT 26/16 A3007 RMK A01 T02570156  RH  054%=      5-min Rain = 0
KVA1 251510Z 17010KT 26/16 A3007 RMK A01 T02580156  RH  053%=      5-min Rain = 0
KVA1 251511Z 17011KT 26/16 A3007 RMK A01 T02570156  RH  054%=      5-min Rain = 0
KVA1 251512Z 15009KT 26/16 A3007 RMK A01 T02570157  RH  054%=      5-min Rain = 0
KVA1 251513Z 15010KT 26/16 A3007 RMK A01 T02580157  RH  053%=      5-min Rain = 0
KVA1 251514Z 15011KT 26/16 A3007 RMK A01 T02590156  RH  053%=      5-min Rain = 0
KVA1 251515Z 15011KT 26/16 A3007 RMK A01 T02600156  RH  053%=      5-min Rain = 0
KVA1 251516Z 17012KT 26/16 A3006 RMK A01 T02590156  RH  053%=      5-min Rain = 0
KVA1 251517Z 18009KT 26/16 A3006 RMK A01 T02590156  RH  053%=      5-min Rain = 0
KVA1 251518Z 19010KT 26/16 A3006 RMK A01 T02600157  RH  053%=      5-min Rain = 0
KVA1 251519Z 18009KT 26/16 A3007 RMK A01 T02600156  RH  053%=      5-min Rain = 0
KVA1 251520Z 17011KT 26/16 A3007 RMK A01 T02590156  RH  053%=      5-min Rain = 0
KVA1 251521Z 17009KT 26/16 A3007 RMK A01 T02590155  RH  053%=      5-min Rain = 0
KVA1 251522Z 16010KT 26/16 A3007 RMK A01 T02590156  RH  053%=      5-min Rain = 0
KVA1 251523Z 16009KT 26/16 A3007 RMK A01 T02600156  RH  053%=      5-min Rain = 0
KVA1 251524Z 16009KT 26/16 A3007 RMK A01 T02610156  RH  052%=      5-min Rain = 0
KVA1 251525Z 16008KT 26/16 A3007 RMK A01 T02620156  RH  052%=      5-min Rain = 0
KVA1 251526Z 16008KT 26/16 A3007 RMK A01 T02640157  RH  052%=      5-min Rain = 0
KVA1 251527Z 19009KT 27/16 A3007 RMK A01 T02660157  RH  051%=      5-min Rain = 0
KVA1 251528Z 20010KT 27/16 A3006 RMK A01 T02670155  RH  050%=      5-min Rain = 0
KVA1 251529Z 18010KT 27/16 A3006 RMK A01 T02650156  RH  051%=      5-min Rain = 0
KVA1 251530Z 17010KT 27/16 A3006 RMK A01 T02650156  RH  051%=      5-min Rain = 0
KVA1 251531Z 18011KT 27/16 A3006 RMK A01 T02650156  RH  051%=      5-min Rain = 0
KVA1 251532Z 19009KT 27/16 A3007 RMK A01 T02670157  RH  051%=      5-min Rain = 0
KVA1 251533Z 19008KT 27/16 A3007 RMK A01 T02670157  RH  051%=      5-min Rain = 0
KVA1 251534Z 17010KT 27/16 A3007 RMK A01 T02660157  RH  051%=      5-min Rain = 0
KVA1 251535Z 19012KT 27/16 A3006 RMK A01 T02650157  RH  051%=      5-min Rain = 0
KVA1 251536Z 17009KT 26/16 A3007 RMK A01 T02640155  RH  051%=      5-min Rain = 0
KVA1 251537Z 16008KT 26/16 A3007 RMK A01 T02640156  RH  052%=      5-min Rain = 0
KVA1 251538Z 19009KT 27/16 A3007 RMK A01 T02670157  RH  051%=      5-min Rain = 0
KVA1 251539Z 17007KT 27/16 A3007 RMK A01 T02700158  RH  050%=      5-min Rain = 0
KVA1 251540Z 18010KT 27/16 A3007 RMK A01 T02710157  RH  050%=      5-min Rain = 0
KVA1 251541Z 18010KT 27/16 A3007 RMK A01 T02710157  RH  050%=      5-min Rain = 0
KVA1 251542Z 17009KT 27/16 A3007 RMK A01 T02720157  RH  049%=      5-min Rain = 0
KVA1 251543Z 18009KT 27/16 A3007 RMK A01 T02720157  RH  049%=      5-min Rain = 0
KVA1 251544Z 19006KT 27/16 A3007 RMK A01 T02700157  RH  050%=      5-min Rain = 0
KVA1 251545Z 19007KT 27/16 A3007 RMK A01 T02680157  RH  050%=      5-min Rain = 0
KVA1 251546Z 18008KT 27/16 A3007 RMK A01 T02680157  RH  051%=      5-min Rain = 0
KVA1 251547Z 17010KT 27/16 A3007 RMK A01 T02700157  RH  050%=      5-min Rain = 0
KVA1 251548Z 18009KT 27/16 A3007 RMK A01 T02730157  RH  049%=      5-min Rain = 0
KVA1 251549Z 18009KT 27/16 A3007 RMK A01 T02720157  RH  049%=      5-min Rain = 0
KVA1 251550Z 18007KT 27/16 A3007 RMK A01 T02720157  RH  049%=      5-min Rain = 0
KVA1 251551Z 18010KT 27/16 A3006 RMK A01 T02730157  RH  049%=      5-min Rain = 0
KVA1 251552Z 18011KT 27/16 A3007 RMK A01 T02730157  RH  049%=      5-min Rain = 0
KVA1 251553Z 17010KT 27/16 A3007 RMK A01 T02740157  RH  049%=      5-min Rain = 0
KVA1 251554Z 18009KT 27/16 A3007 RMK A01 T02740157  RH  049%=      5-min Rain = 0
KVA1 251555Z 16009KT 28/16 A3007 RMK A01 T02750157  RH  049%=      5-min Rain = 0
KVA1 251556Z 15009KT 27/16 A3007 RMK A01 T02740157  RH  049%=      5-min Rain = 0
KVA1 251557Z 18010KT 27/16 A3007 RMK A01 T02740157  RH  049%=      5-min Rain = 0
KVA1 251558Z 19010KT 28/16 A3007 RMK A01 T02760158  RH  049%=      5-min Rain = 0
KVA1 251559Z 19010KT 28/16 A3007 RMK A01 T02790158  RH  048%=      5-min Rain = 0
KVA1 251600Z 18008KT 28/16 A3007 RMK A01 T02780157  RH  048%=      5-min Rain = 0
KVA1 251601Z 18012KT 28/16 A3007 RMK A01 T02770158  RH  048%=      5-min Rain = 0
KVA1 251602Z 19009KT 28/16 A3007 RMK A01 T02770158  RH  048%=      5-min Rain = 0
KVA1 251603Z 19009KT 28/16 A3007 RMK A01 T02770158  RH  048%=      5-min Rain = 0
KVA1 251604Z 17011KT 28/16 A3007 RMK A01 T02750157  RH  049%=      5-min Rain = 0
KVA1 251605Z 17009KT 28/16 A3007 RMK A01 T02760157  RH  048%=      5-min Rain = 0
KVA1 251606Z 17006KT 28/16 A3007 RMK A01 T02770157  RH  048%=      5-min Rain = 0
KVA1 251607Z 18007KT 28/16 A3007 RMK A01 T02770157  RH  048%=      5-min Rain = 0
KVA1 251608Z 18007KT 28/16 A3007 RMK A01 T02770157  RH  048%=      5-min Rain = 0
KVA1 251609Z 18009KT 28/16 A3007 RMK A01 T02770158  RH  048%=      5-min Rain = 0
KVA1 251610Z 19011KT 28/16 A3007 RMK A01 T02790157  RH  047%=      5-min Rain = 0
KVA1 251611Z 18012KT 28/16 A3007 RMK A01 T02780157  RH  048%=      5-min Rain = 0
KVA1 251612Z 18012KT 28/16 A3007 RMK A01 T02780157  RH  048%=      5-min Rain = 0
KVA1 251613Z 19008KT 28/16 A3007 RMK A01 T02790156  RH  047%=      5-min Rain = 0
KVA1 251614Z 20008KT 28/16 A3007 RMK A01 T02790157  RH  047%=      5-min Rain = 0
KVA1 251615Z 20007KT 28/16 A3007 RMK A01 T02800157  RH  047%=      5-min Rain = 0
KVA1 251616Z 18007G15KT 28/16 A3007 RMK A01 T02820158  RH  047%=      5-min Rain = 0
KVA1 251617Z 19010KT 28/16 A3007 RMK A01 T02830157  RH  046%=      5-min Rain = 0
KVA1 251618Z 18009KT 28/16 A3007 RMK A01 T02820157  RH  047%=      5-min Rain = 0
KVA1 251619Z 14009KT 28/16 A3007 RMK A01 T02840157  RH  046%=      5-min Rain = 0
KVA1 251620Z 14011KT 29/16 A3007 RMK A01 T02860157  RH  046%=      5-min Rain = 0
KVA1 251621Z 17012KT 29/16 A3007 RMK A01 T02880157  RH  045%=      5-min Rain = 0
KVA1 251622Z 17014KT 29/16 A3007 RMK A01 T02890157  RH  045%=      5-min Rain = 0
KVA1 251623Z 20012KT 29/16 A3007 RMK A01 T02890156  RH  044%=      5-min Rain = 0
KVA1 251624Z 17009KT 29/16 A3007 RMK A01 T02860156  RH  045%=      5-min Rain = 0
KVA1 251625Z 16010KT 29/16 A3007 RMK A01 T02860158  RH  046%=      5-min Rain = 0
KVA1 251626Z 16013KT 29/16 A3007 RMK A01 T02900158  RH  045%=      5-min Rain = 0
KVA1 251627Z 16014KT 29/16 A3007 RMK A01 T02920157  RH  044%=      5-min Rain = 0
KVA1 251628Z 17012KT 29/16 A3007 RMK A01 T02920156  RH  044%=      5-min Rain = 0
KVA1 251629Z 17012KT 29/16 A3007 RMK A01 T02890155  RH  044%=      5-min Rain = 0
KVA1 251630Z 17012KT 29/16 A3007 RMK A01 T02870156  RH  045%=      5-min Rain = 0
KVA1 251631Z 17008KT 29/16 A3007 RMK A01 T02860156  RH  045%=      5-min Rain = 0
KVA1 251632Z 17010KT 29/16 A3007 RMK A01 T02860157  RH  045%=      5-min Rain = 0
KVA1 251633Z 17012KT 29/16 A3007 RMK A01 T02890157  RH  045%=      5-min Rain = 0
KVA1 251634Z 16011KT 29/16 A3007 RMK A01 T02910157  RH  044%=      5-min Rain = 0
KVA1 251635Z 15010KT 29/16 A3006 RMK A01 T02920157  RH  044%=      5-min Rain = 0
KVA1 251636Z 16010G15KT 30/16 A3006 RMK A01 T02950157  RH  043%=      5-min Rain = 0
KVA1 251637Z 18014KT 30/16 A3006 RMK A01 T02990156  RH  042%=      5-min Rain = 0
KVA1 251638Z 17008KT 30/15 A3007 RMK A01 T02970154  RH  042%=      5-min Rain = 0
KVA1 251639Z 18011KT 30/16 A3006 RMK A01 T02960155  RH  042%=      5-min Rain = 0
KVA1 251640Z 19010KT 30/16 A3006 RMK A01 T02960155  RH  042%=      5-min Rain = 0
KVA1 251641Z 18010KT 30/16 A3006 RMK A01 T02950156  RH  043%=      5-min Rain = 0
KVA1 251642Z 17011KT 30/15 A3006 RMK A01 T02980153  RH  041%=      5-min Rain = 0
KVA1 251643Z 18009KT 30/15 A3006 RMK A01 T02980152  RH  041%=      5-min Rain = 0
KVA1 251644Z 18011KT 30/15 A3006 RMK A01 T02950153  RH  042%=      5-min Rain = 0
KVA1 251645Z 18013KT 29/15 A3006 RMK A01 T02930153  RH  043%=      5-min Rain = 0
KVA1 251646Z 17012KT 30/15 A3006 RMK A01 T02950153  RH  042%=      5-min Rain = 0
KVA1 251647Z 17012KT 30/15 A3006 RMK A01 T02980153  RH  041%=      5-min Rain = 0
KVA1 251648Z 15014KT 30/15 A3006 RMK A01 T02980152  RH  041%=      5-min Rain = 0
KVA1 251649Z 16015KT 30/15 A3006 RMK A01 T02980152  RH  041%=      5-min Rain = 0
KVA1 251650Z 17011KT 30/15 A3006 RMK A01 T02990151  RH  041%=      5-min Rain = 0
KVA1 251651Z 17013KT 30/15 A3006 RMK A01 T03030151  RH  040%=      5-min Rain = 0
KVA1 251652Z 17012KT 30/15 A3006 RMK A01 T03040151  RH  039%=      5-min Rain = 0
KVA1 251653Z 18010KT 30/15 A3006 RMK A01 T03030151  RH  040%=      5-min Rain = 0
KVA1 251654Z 17011KT 30/15 A3006 RMK A01 T03040151  RH  039%=      5-min Rain = 0
KVA1 251655Z 16010KT 31/15 A3006 RMK A01 T03050150  RH  039%=      5-min Rain = 0
KVA1 251656Z 17011KT 31/15 A3006 RMK A01 T03050149  RH  039%=      5-min Rain = 0
KVA1 251657Z 19008KT 31/15 A3006 RMK A01 T03050150  RH  039%=      5-min Rain = 0
KVA1 251658Z 20011KT 31/15 A3006 RMK A01 T03050151  RH  039%=      5-min Rain = 0
KVA1 251659Z 20010KT 31/15 A3006 RMK A01 T03060149  RH  039%=      5-min Rain = 0
KVA1 251700Z 17012KT 31/15 A3006 RMK A01 T03080148  RH  038%=      5-min Rain = 0
KVA1 251701Z 17012G17KT 31/15 A3006 RMK A01 T03060147  RH  038%=      5-min Rain = 0
KVA1 251702Z 17011KT 30/15 A3006 RMK A01 T03040146  RH  038%=      5-min Rain = 0
KVA1 251703Z 16014KT 30/15 A3006 RMK A01 T03030146  RH  038%=      5-min Rain = 0
KVA1 251704Z 17012KT 30/15 A3006 RMK A01 T03040146  RH  038%=      5-min Rain = 0
KVA1 251705Z 18013KT 31/15 A3006 RMK A01 T03050147  RH  038%=      5-min Rain = 0
KVA1 251706Z 19010G16KT 31/15 A3006 RMK A01 T03050148  RH  038%=      5-min Rain = 0
KVA1 251707Z 17012KT 31/15 A3006 RMK A01 T03080148  RH  038%=      5-min Rain = 0
KVA1 251708Z 18009KT 31/15 A3006 RMK A01 T03090147  RH  037%=      5-min Rain = 0
KVA1 251709Z 17007KT 31/15 A3006 RMK A01 T03050148  RH  038%=      5-min Rain = 0
KVA1 251710Z 17010G15KT 31/15 A3005 RMK A01 T03080148  RH  038%=      5-min Rain = 0
KVA1 251711Z 17013KT 31/15 A3005 RMK A01 T03110147  RH  037%=      5-min Rain = 0
KVA1 251712Z 17010KT 31/15 A3006 RMK A01 T03130147  RH  037%=      5-min Rain = 0
KVA1 251713Z 16009KT 31/15 A3005 RMK A01 T03140148  RH  037%=      5-min Rain = 0
KVA1 251714Z 18014G19KT 32/15 A3005 RMK A01 T03150147  RH  036%=      5-min Rain = 0
KVA1 251715Z 20014G19KT 31/15 A3005 RMK A01 T03140147  RH  036%=      5-min Rain = 0
KVA1 251716Z 19009KT 31/15 A3005 RMK A01 T03110145  RH  037%=      5-min Rain = 0
KVA1 251717Z 16011KT 31/15 A3005 RMK A01 T03090146  RH  037%=      5-min Rain = 0
KVA1 251718Z 17010KT 31/15 A3005 RMK A01 T03120146  RH  037%=      5-min Rain = 0
KVA1 251719Z 17012KT 31/15 A3005 RMK A01 T03130146  RH  036%=      5-min Rain = 0
KVA1 251720Z 18012KT 32/15 A3005 RMK A01 T03160146  RH  036%=      5-min Rain = 0
KVA1 251721Z 20012KT 32/15 A3005 RMK A01 T03150146  RH  036%=      5-min Rain = 0
KVA1 251722Z 18010KT 32/15 A3005 RMK A01 T03150145  RH  036%=      5-min Rain = 0
KVA1 251723Z 17008KT 31/15 A3005 RMK A01 T03140145  RH  036%=      5-min Rain = 0
KVA1 251724Z 17007KT 31/14 A3005 RMK A01 T03140144  RH  036%=      5-min Rain = 0
KVA1 251725Z 17008KT 31/14 A3005 RMK A01 T03130144  RH  036%=      5-min Rain = 0
KVA1 251726Z 17009KT 31/14 A3005 RMK A01 T03130144  RH  036%=      5-min Rain = 0
KVA1 251727Z 17011KT 32/14 A3005 RMK A01 T03160144  RH  035%=      5-min Rain = 0
KVA1 251728Z 16011KT 32/14 A3005 RMK A01 T03180143  RH  035%=      5-min Rain = 0
KVA1 251729Z 19014KT 32/14 A3005 RMK A01 T03180144  RH  035%=      5-min Rain = 0
KVA1 251730Z 18011KT 32/14 A3005 RMK A01 T03190144  RH  035%=      5-min Rain = 0
KVA1 251731Z 18010KT 32/14 A3005 RMK A01 T03210144  RH  034%=      5-min Rain = 0
KVA1 251732Z 18008KT 32/14 A3005 RMK A01 T03220143  RH  034%=      5-min Rain = 0
KVA1 251733Z 18012KT 32/14 A3005 RMK A01 T03220144  RH  034%=      5-min Rain = 0
KVA1 251734Z 19015KT 32/14 A3005 RMK A01 T03230142  RH  033%=      5-min Rain = 0
KVA1 251735Z 20007G12KT 32/14 A3005 RMK A01 T03190142  RH  034%=      5-min Rain = 0
KVA1 251736Z 19009KT 31/14 A3005 RMK A01 T03130141  RH  035%=      5-min Rain = 0
KVA1 251737Z 18011KT 31/14 A3005 RMK A01 T03140143  RH  035%=      5-min Rain = 0
KVA1 251738Z 18008KT 32/14 A3005 RMK A01 T03160142  RH  035%=      5-min Rain = 0
KVA1 251739Z 19014KT 32/14 A3005 RMK A01 T03160143  RH  035%=      5-min Rain = 0
KVA1 251740Z 20010G15KT 32/14 A3005 RMK A01 T03160142  RH  035%=      5-min Rain = 0
KVA1 251741Z 18010G16KT 32/14 A3005 RMK A01 T03160143  RH  035%=      5-min Rain = 0
KVA1 251742Z 16011KT 32/14 A3005 RMK A01 T03180142  RH  034%=      5-min Rain = 0
KVA1 251743Z 16009KT 32/14 A3005 RMK A01 T03160141  RH  035%=      5-min Rain = 0
KVA1 251744Z 19007KT 31/14 A3005 RMK A01 T03140141  RH  035%=      5-min Rain = 0
KVA1 251745Z 14006KT 31/14 A3005 RMK A01 T03140140  RH  035%=      5-min Rain = 0
KVA1 251746Z 19008G15KT 31/14 A3004 RMK A01 T03130141  RH  035%=      5-min Rain = 0
KVA1 251747Z 19011KT 32/14 A3004 RMK A01 T03170142  RH  034%=      5-min Rain = 0
KVA1 251748Z 16011KT 32/14 A3005 RMK A01 T03220140  RH  033%=      5-min Rain = 0
KVA1 251749Z 16015G21KT 32/14 A3004 RMK A01 T03240138  RH  033%=      5-min Rain = 0
KVA1 251750Z 18014KT 33/14 A3004 RMK A01 T03270140  RH  032%=      5-min Rain = 0
KVA1 251751Z 17013KT 33/14 A3004 RMK A01 T03300138  RH  031%=      5-min Rain = 0
KVA1 251752Z 18009KT 33/14 A3004 RMK A01 T03280138  RH  032%=      5-min Rain = 0
KVA1 251753Z 18013KT 33/14 A3004 RMK A01 T03270138  RH  032%=      5-min Rain = 0
KVA1 251754Z 19013KT 33/14 A3004 RMK A01 T03260137  RH  032%=      5-min Rain = 0
KVA1 251755Z 18010KT 32/14 A3004 RMK A01 T03230137  RH  032%=      5-min Rain = 0
KVA1 251756Z 18010KT 32/14 A3004 RMK A01 T03230137  RH  032%=      5-min Rain = 0
KVA1 251757Z 20008KT 32/14 A3004 RMK A01 T03230137  RH  032%=      5-min Rain = 0
KVA1 251758Z 20012G18KT 32/14 A3004 RMK A01 T03230137  RH  032%=      5-min Rain = 0
KVA1 251759Z 19011KT 32/14 A3004 RMK A01 T03240136  RH  032%=      5-min Rain = 0
KVA1 251800Z 21010KT 33/14 A3004 RMK A01 T03250136  RH  032%=      5-min Rain = 0
KVA1 251801Z 17014G20KT 33/14 A3004 RMK A01 T03280136  RH  031%=      5-min Rain = 0
KVA1 251802Z 17014KT 33/14 A3004 RMK A01 T03310136  RH  031%=      5-min Rain = 0
KVA1 251803Z 18014KT 33/14 A3004 RMK A01 T03290136  RH  031%=      5-min Rain = 0
KVA1 251804Z 18013KT 33/14 A3004 RMK A01 T03300135  RH  031%=      5-min Rain = 0
KVA1 251805Z 18013KT 33/14 A3004 RMK A01 T03300135  RH  031%=      5-min Rain = 0
KVA1 251806Z 18011KT 33/14 A3004 RMK A01 T03340135  RH  030%=      5-min Rain = 0
KVA1 251807Z 17009KT 33/13 A3004 RMK A01 T03340134  RH  030%=      5-min Rain = 0
KVA1 251808Z 17009KT 33/13 A3004 RMK A01 T03320134  RH  030%=      5-min Rain = 0
KVA1 251809Z 18007KT 33/14 A3004 RMK A01 T03260135  RH  031%=      5-min Rain = 0
KVA1 251810Z 21009G14KT 33/14 A3004 RMK A01 T03270137  RH  032%=      5-min Rain = 0
KVA1 251811Z 22008KT 33/14 A3004 RMK A01 T03260137  RH  032%=      5-min Rain = 0
KVA1 251812Z 22009KT 33/14 A3004 RMK A01 T03280137  RH  031%=      5-min Rain = 0
KVA1 251813Z 23012G17KT 33/14 A3004 RMK A01 T03330136  RH  030%=      5-min Rain = 0
KVA1 251814Z 21012KT 33/13 A3004 RMK A01 T03340132  RH  030%=      5-min Rain = 0
KVA1 251815Z 22008KT 33/13 A3004 RMK A01 T03280133  RH  031%=      5-min Rain = 0
KVA1 251816Z 23011G16KT 33/13 A3004 RMK A01 T03330133  RH  030%=      5-min Rain = 0
KVA1 251817Z 21012KT 34/13 A3004 RMK A01 T03360131  RH  029%=      5-min Rain = 0
KVA1 251818Z 22011KT 34/13 A3004 RMK A01 T03360128  RH  028%=      5-min Rain = 0
KVA1 251819Z 22012KT 34/13 A3004 RMK A01 T03350130  RH  029%=      5-min Rain = 0
KVA1 251820Z 21008KT 33/13 A3004 RMK A01 T03330131  RH  030%=      5-min Rain = 0
KVA1 251821Z 20012KT 33/13 A3004 RMK A01 T03320132  RH  030%=      5-min Rain = 0
KVA1 251822Z 20010G15KT 33/13 A3004 RMK A01 T03320132  RH  030%=      5-min Rain = 0
KVA1 251823Z 21010G16KT 33/13 A3003 RMK A01 T03320132  RH  030%=      5-min Rain = 0
KVA1 251824Z 21008KT 33/13 A3003 RMK A01 T03330130  RH  029%=      5-min Rain = 0
KVA1 251825Z 21009KT 33/13 A3003 RMK A01 T03310130  RH  029%=      5-min Rain = 0
KVA1 251826Z 22010KT 33/13 A3003 RMK A01 T03310131  RH  030%=      5-min Rain = 0
KVA1 251827Z 21011KT 33/13 A3003 RMK A01 T03330131  RH  029%=      5-min Rain = 0
KVA1 251828Z 21011KT 33/13 A3004 RMK A01 T03340129  RH  029%=      5-min Rain = 0
KVA1 251829Z 20008KT 33/13 A3003 RMK A01 T03330128  RH  029%=      5-min Rain = 0
KVA1 251830Z 19010KT 33/13 A3003 RMK A01 T03340131  RH  029%=      5-min Rain = 0
KVA1 251831Z 20008KT 34/13 A3003 RMK A01 T03350130  RH  029%=      5-min Rain = 0
KVA1 251832Z 21008KT 33/13 A3003 RMK A01 T03320131  RH  030%=      5-min Rain = 0
KVA1 251833Z 21008KT 33/13 A3003 RMK A01 T03340134  RH  030%=      5-min Rain = 0
KVA1 251834Z 21012G18KT 34/13 A3003 RMK A01 T03350133  RH  030%=      5-min Rain = 0
KVA1 251835Z 20010KT 34/13 A3003 RMK A01 T03370133  RH  029%=      5-min Rain = 0
KVA1 251836Z 22011KT 34/13 A3003 RMK A01 T03400132  RH  029%=      5-min Rain = 0
KVA1 251837Z 23012KT 34/13 A3003 RMK A01 T03440131  RH  028%=      5-min Rain = 0
KVA1 251838Z 23008KT 34/13 A3003 RMK A01 T03430129  RH  028%=      5-min Rain = 0
KVA1 251839Z 19009KT 34/13 A3003 RMK A01 T03410131  RH  028%=      5-min Rain = 0
KVA1 251840Z 21009KT 34/13 A3003 RMK A01 T03410130  RH  028%=      5-min Rain = 0
KVA1 251841Z 21009KT 34/13 A3003 RMK A01 T03410131  RH  028%=      5-min Rain = 0
KVA1 251842Z 20008KT 34/13 A3003 RMK A01 T03410131  RH  028%=      5-min Rain = 0
KVA1 251843Z 22010G16KT 34/13 A3003 RMK A01 T03400132  RH  029%=      5-min Rain = 0
KVA1 251844Z 22009KT 34/13 A3003 RMK A01 T03410133  RH  028%=      5-min Rain = 0
KVA1 251845Z 23010KT 34/13 A3003 RMK A01 T03420133  RH  028%=      5-min Rain = 0
KVA1 251846Z 22010KT 34/13 A3003 RMK A01 T03430133  RH  028%=      5-min Rain = 0
KVA1 251847Z 22007KT 34/13 A3003 RMK A01 T03380132  RH  029%=      5-min Rain = 0
KVA1 251848Z 24008KT 34/13 A3003 RMK A01 T03360132  RH  029%=      5-min Rain = 0
KVA1 251849Z 20008KT 34/13 A3003 RMK A01 T03390133  RH  029%=      5-min Rain = 0
KVA1 251850Z 23011KT 34/13 A3003 RMK A01 T03410134  RH  029%=      5-min Rain = 0
KVA1 251851Z 25009KT 34/13 A3003 RMK A01 T03410134  RH  029%=      5-min Rain = 0
KVA1 251852Z 23011KT 34/14 A3002 RMK A01 T03390136  RH  029%=      5-min Rain = 0
KVA1 251853Z 23010KT 34/13 A3002 RMK A01 T03390132  RH  029%=      5-min Rain = 0
KVA1 251854Z 22008KT 34/13 A3002 RMK A01 T03390130  RH  028%=      5-min Rain = 0
KVA1 251855Z 22009G14KT 34/13 A3002 RMK A01 T03420131  RH  028%=      5-min Rain = 0
KVA1 251856Z 22012KT 34/13 A3002 RMK A01 T03440127  RH  027%=      5-min Rain = 0
KVA1 251857Z 22009KT 34/13 A3002 RMK A01 T03410128  RH  028%=      5-min Rain = 0
KVA1 251858Z 21010G16KT 34/13 A3002 RMK A01 T03410127  RH  027%=      5-min Rain = 0
KVA1 251859Z 21009KT 34/12 A3002 RMK A01 T03410124  RH  027%=      5-min Rain = 0
KVA1 251900Z 24011KT 34/13 A3002 RMK A01 T03400125  RH  027%=      5-min Rain = 0
KVA1 251901Z 23008KT 34/13 A3002 RMK A01 T03420127  RH  027%=      5-min Rain = 0
KVA1 251902Z 21005KT 34/13 A3002 RMK A01 T03410127  RH  027%=      5-min Rain = 0
KVA1 251903Z 24007G12KT 34/13 A3002 RMK A01 T03380128  RH  028%=      5-min Rain = 0
KVA1 251904Z 21012KT 34/13 A3002 RMK A01 T03400127  RH  028%=      5-min Rain = 0
KVA1 251905Z 21008G14KT 34/13 A3002 RMK A01 T03410125  RH  027%=      5-min Rain = 0
KVA1 251906Z 19009KT 34/12 A3002 RMK A01 T03400123  RH  027%=      5-min Rain = 0
KVA1 251907Z 17007KT 34/12 A3002 RMK A01 T03400123  RH  027%=      5-min Rain = 0
KVA1 251908Z 18007KT 34/12 A3002 RMK A01 T03400123  RH  027%=      5-min Rain = 0
KVA1 251909Z 20008G13KT 35/13 A3002 RMK A01 T03460127  RH  027%=      5-min Rain = 0
KVA1 251910Z 20012KT 35/12 A3002 RMK A01 T03490124  RH  026%=      5-min Rain = 0
KVA1 251911Z 19009KT 35/12 A3002 RMK A01 T03470122  RH  026%=      5-min Rain = 0
KVA1 251912Z 19010KT 35/12 A3002 RMK A01 T03450120  RH  026%=      5-min Rain = 0
KVA1 251913Z 20010KT 34/12 A3002 RMK A01 T03440117  RH  025%=      5-min Rain = 0
KVA1 251914Z 21007KT 34/12 A3002 RMK A01 T03390121  RH  027%=      5-min Rain = 0
KVA1 251915Z 19004KT 34/12 A3002 RMK A01 T03380120  RH  027%=      5-min Rain = 0
KVA1 251916Z 20009G14KT 34/12 A3001 RMK A01 T03380120  RH  027%=      5-min Rain = 0
KVA1 251917Z 20009KT 34/12 A3001 RMK A01 T03400118  RH  026%=      5-min Rain = 0
KVA1 251918Z 20011KT 34/12 A3001 RMK A01 T03420119  RH  026%=      5-min Rain = 0
KVA1 251919Z 18010KT 34/12 A3001 RMK A01 T03430119  RH  026%=      5-min Rain = 0
KVA1 251920Z 16007KT 35/12 A3001 RMK A01 T03450117  RH  025%=      5-min Rain = 0
KVA1 251921Z 16004KT 34/12 A3001 RMK A01 T03440116  RH  025%=      5-min Rain = 0
KVA1 251922Z 18008G16KT 34/12 A3001 RMK A01 T03420120  RH  026%=      5-min Rain = 0
KVA1 251923Z 22011KT 35/12 A3001 RMK A01 T03460124  RH  026%=      5-min Rain = 0
KVA1 251924Z 20006KT 35/12 A3001 RMK A01 T03490122  RH  025%=      5-min Rain = 0
KVA1 251925Z 22002KT 35/12 A3001 RMK A01 T03460122  RH  026%=      5-min Rain = 0
KVA1 251926Z 19009G15KT 35/12 A3001 RMK A01 T03450122  RH  026%=      5-min Rain = 0
KVA1 251927Z 19010KT 35/12 A3001 RMK A01 T03460122  RH  026%=      5-min Rain = 0
KVA1 251928Z 20006KT 34/12 A3001 RMK A01 T03430119  RH  026%=      5-min Rain = 0
KVA1 251929Z 19011KT 34/12 A3001 RMK A01 T03430121  RH  026%=      5-min Rain = 0
KVA1 251930Z 19010KT 35/12 A3001 RMK A01 T03480119  RH  025%=      5-min Rain = 0
KVA1 251931Z 18009KT 35/12 A3001 RMK A01 T03480117  RH  025%=      5-min Rain = 0
KVA1 251932Z 19011KT 35/12 A3001 RMK A01 T03470118  RH  025%=      5-min Rain = 0
KVA1 251933Z 17010KT 35/12 A3001 RMK A01 T03500118  RH  025%=      5-min Rain = 0
KVA1 251934Z 18010KT 35/12 A3001 RMK A01 T03530119  RH  024%=      5-min Rain = 0
KVA1 251935Z 15006KT 36/11 A3001 RMK A01 T03560113  RH  023%=      5-min Rain = 0
KVA1 251936Z 13005KT 36/11 A3001 RMK A01 T03570109  RH  022%=      5-min Rain = 0
KVA1 251937Z 19005KT 36/11 A3001 RMK A01 T03580113  RH  023%=      5-min Rain = 0
KVA1 251938Z 21005KT 36/12 A3001 RMK A01 T03570118  RH  024%=      5-min Rain = 0
KVA1 251939Z 23006KT 36/12 A3001 RMK A01 T03550118  RH  024%=      5-min Rain = 0
KVA1 251940Z 22009KT 35/12 A30 RMK A01 T03500116  RH  024%=      5-min Rain = 0
KVA1 251941Z 23013KT 35/12 A30 RMK A01 T03520117  RH  024%=      5-min Rain = 0
KVA1 251942Z 24011KT 35/12 A30 RMK A01 T03540115  RH  024%=      5-min Rain = 0
KVA1 251943Z 23009KT 35/12 A3001 RMK A01 T03530115  RH  024%=      5-min Rain = 0
KVA1 251944Z 22005KT 36/12 A30 RMK A01 T03550115  RH  023%=      5-min Rain = 0
KVA1 251945Z 20004KT 35/11 A30 RMK A01 T03530114  RH  024%=      5-min Rain = 0
KVA1 251946Z 24004KT 35/12 A30 RMK A01 T03520115  RH  024%=      5-min Rain = 0
KVA1 251947Z 22008G13KT 35/11 A30 RMK A01 T03490113  RH  024%=      5-min Rain = 0
KVA1 251948Z 21011KT 35/10 A30 RMK A01 T03500104  RH  022%=      5-min Rain = 0
KVA1 251949Z 21010KT 35/11 A30 RMK A01 T03490105  RH  023%=      5-min Rain = 0
KVA1 251950Z 17010KT 35/11 A30 RMK A01 T03490108  RH  023%=      5-min Rain = 0
KVA1 251951Z 18011KT 35/11 A30 RMK A01 T03500112  RH  024%=      5-min Rain = 0
KVA1 251952Z 20007KT 35/11 A30 RMK A01 T03500114  RH  024%=      5-min Rain = 0
KVA1 251953Z 24004KT 35/11 A30 RMK A01 T03480112  RH  024%=      5-min Rain = 0
KVA1 251954Z 15006KT 35/10 A30 RMK A01 T03490098  RH  022%=      5-min Rain = 0
KVA1 251955Z 18004KT 35/09 A30 RMK A01 T03510087  RH  020%=      5-min Rain = 0
KVA1 251956Z 20005KT 36/11 A30 RMK A01 T03550107  RH  022%=      5-min Rain = 0
KVA1 251957Z 20008KT 36/11 A30 RMK A01 T03600110  RH  022%=      5-min Rain = 0
KVA1 251958Z 19009KT 37/10 A30 RMK A01 T03650096  RH  020%=      5-min Rain = 0
KVA1 251959Z 15009KT 36/10 A30 RMK A01 T03610099  RH  020%=      5-min Rain = 0
KVA1 252000Z 16009KT 36/10 A30 RMK A01 T03610101  RH  021%=      5-min Rain = 0
KVA1 252001Z 19009KT 36/11 A30 RMK A01 T03610106  RH  021%=      5-min Rain = 0
KVA1 252002Z 23010KT 36/12 A30 RMK A01 T03600115  RH  023%=      5-min Rain = 0
KVA1 252003Z 25010KT 36/12 A30 RMK A01 T03590115  RH  023%=      5-min Rain = 0
KVA1 252004Z 22011KT 36/12 A30 RMK A01 T03610117  RH  023%=      5-min Rain = 0
KVA1 252005Z 22007KT 36/12 A30 RMK A01 T03590116  RH  023%=      5-min Rain = 0
KVA1 252006Z 24008KT 36/11 A30 RMK A01 T03570113  RH  023%=      5-min Rain = 0
KVA1 252007Z 25007KT 35/11 A30 RMK A01 T03530110  RH  023%=      5-min Rain = 0
KVA1 252008Z 24006G11KT 35/11 A2999 RMK A01 T03520112  RH  023%=      5-min Rain = 0
KVA1 252009Z 22006KT 35/11 A2999 RMK A01 T03530112  RH  023%=      5-min Rain = 0
KVA1 252010Z 19007KT 36/11 A30 RMK A01 T03560112  RH  023%=      5-min Rain = 0
KVA1 252011Z 17007KT 36/11 A2999 RMK A01 T03600105  RH  021%=      5-min Rain = 0
KVA1 252012Z 19008KT 36/11 A2999 RMK A01 T03610105  RH  021%=      5-min Rain = 0
KVA1 252013Z 21012KT 36/10 A2999 RMK A01 T03620101  RH  021%=      5-min Rain = 0
KVA1 252014Z 18007KT 36/10 A2999 RMK A01 T03600102  RH  021%=      5-min Rain = 0
KVA1 252015Z 19007KT 36/10 A2999 RMK A01 T03570104  RH  022%=      5-min Rain = 0
KVA1 252016Z 19006KT 36/11 A2999 RMK A01 T03570105  RH  022%=      5-min Rain = 0
KVA1 252017Z 20003KT 36/10 A2999 RMK A01 T03550101  RH  021%=      5-min Rain = 0
KVA1 252018Z 23010KT 36/10 A2999 RMK A01 T03550104  RH  022%=      5-min Rain = 0
KVA1 252019Z 25007KT 36/11 A2999 RMK A01 T03570107  RH  022%=      5-min Rain = 0
KVA1 252020Z 29006KT 36/11 A2999 RMK A01 T03560106  RH  022%=      5-min Rain = 0
KVA1 252021Z 29003KT 35/10 A2999 RMK A01 T03540100  RH  021%=      5-min Rain = 0
KVA1 252022Z 24002KT 35/10 A2999 RMK A01 T03530103  RH  022%=      5-min Rain = 0
KVA1 252023Z 24006G11KT 35/10 A2999 RMK A01 T03540104  RH  022%=      5-min Rain = 0
KVA1 252024Z 23007KT 36/10 A2999 RMK A01 T03570103  RH  021%=      5-min Rain = 0
KVA1 252025Z 21007KT 36/10 A2998 RMK A01 T03560102  RH  021%=      5-min Rain = 0
KVA1 252026Z 19010KT 36/10 A2998 RMK A01 T03560101  RH  021%=      5-min Rain = 0
KVA1 252027Z 18010KT 36/09 A2998 RMK A01 T03570094  RH  020%=      5-min Rain = 0
KVA1 252028Z 18007KT 36/09 A2998 RMK A01 T03570092  RH  020%=      5-min Rain = 0
KVA1 252029Z 20006KT 36/10 A2998 RMK A01 T03590097  RH  020%=      5-min Rain = 0
KVA1 252030Z 17008G17KT 36/10 A2998 RMK A01 T03620098  RH  020%=      5-min Rain = 0
KVA1 252031Z 16009KT 37/07 A2998 RMK A01 T03680073  RH  016%=      5-min Rain = 0
KVA1 252032Z 17011G16KT 37/09 A2998 RMK A01 T03700088  RH  018%=      5-min Rain = 0
KVA1 252033Z 19007KT 37/09 A2998 RMK A01 T03700086  RH  018%=      5-min Rain = 0
KVA1 252034Z 19005KT 37/10 A2998 RMK A01 T03700101  RH  020%=      5-min Rain = 0
KVA1 252035Z 19002KT 37/10 A2998 RMK A01 T03670102  RH  020%=      5-min Rain = 0
KVA1 252036Z 17006KT 37/09 A2998 RMK A01 T03680092  RH  019%=      5-min Rain = 0
KVA1 252037Z 20008KT 37/10 A2998 RMK A01 T03680102  RH  020%=      5-min Rain = 0
KVA1 252038Z 21006KT 37/11 A2998 RMK A01 T03690106  RH  020%=      5-min Rain = 0
KVA1 252039Z 23003KT 37/10 A2998 RMK A01 T03670102  RH  020%=      5-min Rain = 0
KVA1 252040Z 22006G12KT 36/10 A2998 RMK A01 T03600100  RH  021%=      5-min Rain = 0
KVA1 252041Z 23008KT 36/10 A2998 RMK A01 T03610097  RH  020%=      5-min Rain = 0
KVA1 252042Z 25008KT 36/10 A2998 RMK A01 T03620097  RH  020%=      5-min Rain = 0
KVA1 252043Z 23003KT 36/10 A2997 RMK A01 T03600099  RH  020%=      5-min Rain = 0
KVA1 252044Z 22006KT 36/10 A2997 RMK A01 T03590099  RH  021%=      5-min Rain = 0
KVA1 252045Z 22008KT 36/10 A2997 RMK A01 T03600102  RH  021%=      5-min Rain = 0
KVA1 252046Z 21007KT 36/10 A2997 RMK A01 T03600101  RH  021%=      5-min Rain = 0
KVA1 252047Z 21005KT 36/10 A2997 RMK A01 T03600103  RH  021%=      5-min Rain = 0
KVA1 252048Z 19007KT 36/10 A2997 RMK A01 T03640103  RH  021%=      5-min Rain = 0
KVA1 252049Z 17007KT 36/10 A2997 RMK A01 T03620096  RH  020%=      5-min Rain = 0
KVA1 252050Z 18006KT 36/09 A2997 RMK A01 T03560091  RH  020%=      5-min Rain = 0
KVA1 252051Z 14010KT 35/09 A2997 RMK A01 T03530086  RH  020%=      5-min Rain = 0
KVA1 252052Z 13008KT 35/09 A2997 RMK A01 T03530086  RH  020%=      5-min Rain = 0
KVA1 252053Z 15009KT 36/09 A2997 RMK A01 T03550086  RH  019%=      5-min Rain = 0
KVA1 252054Z 14009KT 36/08 A2997 RMK A01 T03570083  RH  019%=      5-min Rain = 0
KVA1 252055Z 15010KT 36/09 A2997 RMK A01 T03580086  RH  019%=      5-min Rain = 0
KVA1 252056Z 15008KT 36/09 A2997 RMK A01 T03580089  RH  019%=      5-min Rain = 0
KVA1 252057Z 14007KT 36/09 A2997 RMK A01 T03550092  RH  020%=      5-min Rain = 0
KVA1 252058Z 13005KT 35/09 A2997 RMK A01 T03520093  RH  021%=      5-min Rain = 0
KVA1 252059Z 14005KT 35/09 A2997 RMK A01 T03500093  RH  021%=      5-min Rain = 0
KVA1 252100Z 13005KT 35/09 A2997 RMK A01 T03500094  RH  021%=      5-min Rain = 0
KVA1 252101Z 14008KT 35/09 A2997 RMK A01 T03510088  RH  020%=      5-min Rain = 0
KVA1 252102Z 14008KT 35/07 A2997 RMK A01 T03520070  RH  018%=      5-min Rain = 0
KVA1 252103Z 14007KT 35/07 A2997 RMK A01 T03530068  RH  017%=      5-min Rain = 0
KVA1 252104Z 12009KT 35/07 A2997 RMK A01 T03520067  RH  017%=      5-min Rain = 0
KVA1 252105Z 13008KT 35/07 A2997 RMK A01 T03520073  RH  018%=      5-min Rain = 0
KVA1 252106Z 14009KT 35/08 A2997 RMK A01 T03530080  RH  019%=      5-min Rain = 0
KVA1 252107Z 14008KT 35/08 A2997 RMK A01 T03510083  RH  019%=      5-min Rain = 0
KVA1 252108Z 13008KT 35/09 A2997 RMK A01 T03500087  RH  020%=      5-min Rain = 0
KVA1 252109Z 13006KT 35/09 A2997 RMK A01 T03500088  RH  020%=      5-min Rain = 0
KVA1 252110Z 11004KT 35/08 A2997 RMK A01 T03510084  RH  019%=      5-min Rain = 0
KVA1 252111Z 11005KT 35/08 A2997 RMK A01 T03490082  RH  019%=      5-min Rain = 0
KVA1 252112Z 11005KT 35/08 A2997 RMK A01 T03490077  RH  019%=      5-min Rain = 0
KVA1 252113Z 14002KT 35/07 A2997 RMK A01 T03480072  RH  018%=      5-min Rain = 0
KVA1 252114Z 14002KT 35/07 A2997 RMK A01 T03490069  RH  018%=      5-min Rain = 0
KVA1 252115Z 11002KT 35/07 A2997 RMK A01 T03490065  RH  017%=      5-min Rain = 0
KVA1 252116Z 15002KT 35/07 A2997 RMK A01 T03480066  RH  017%=      5-min Rain = 0
KVA1 252117Z 16004KT 35/07 A2997 RMK A01 T03470066  RH  018%=      5-min Rain = 0
KVA1 252118Z 15005KT 35/07 A2997 RMK A01 T03480065  RH  017%=      5-min Rain = 0
KVA1 252119Z 15009KT 35/06 A2997 RMK A01 T03480062  RH  017%=      5-min Rain = 0
KVA1 252120Z 14007KT 35/06 A2997 RMK A01 T03480056  RH  016%=      5-min Rain = 0
KVA1 252121Z 15006KT 35/05 A2997 RMK A01 T03490054  RH  016%=      5-min Rain = 0
KVA1 252122Z 16006KT 35/05 A2997 RMK A01 T03490051  RH  016%=      5-min Rain = 0
KVA1 252123Z 16006KT 35/05 A2997 RMK A01 T03500050  RH  016%=      5-min Rain = 0
KVA1 252124Z 14006KT 35/05 A2997 RMK A01 T03500054  RH  016%=      5-min Rain = 0
KVA1 252125Z 14006KT 35/06 A2997 RMK A01 T03510056  RH  016%=      5-min Rain = 0
KVA1 252126Z 15006KT 35/06 A2997 RMK A01 T03500056  RH  016%=      5-min Rain = 0
KVA1 252127Z 15005KT 35/06 A2997 RMK A01 T03490058  RH  016%=      5-min Rain = 0
KVA1 252128Z 14006KT 35/06 A2997 RMK A01 T03490058  RH  017%=      5-min Rain = 0
KVA1 252129Z 14007KT 35/06 A2998 RMK A01 T03500057  RH  016%=      5-min Rain = 0
KVA1 252130Z 13010KT 35/06 A2998 RMK A01 T03510056  RH  016%=      5-min Rain = 0
KVA1 252131Z 11011KT 35/06 A2998 RMK A01 T03510063  RH  017%=      5-min Rain = 0
KVA1 252132Z 10014KT 35/06 A2998 RMK A01 T03460060  RH  017%=      5-min Rain = 0
KVA1 252133Z 12013KT 34/06 A2998 RMK A01 T03440060  RH  017%=      5-min Rain = 0
KVA1 252134Z 11015KT 34/06 A2998 RMK A01 T03430059  RH  017%=      5-min Rain = 0
KVA1 252135Z 11015KT 34/06 A2998 RMK A01 T03400059  RH  017%=      5-min Rain = 0
KVA1 252136Z 11015KT 34/06 A2998 RMK A01 T03370060  RH  018%=      5-min Rain = 0
KVA1 252137Z 10015KT 34/06 A2998 RMK A01 T03350061  RH  018%=      5-min Rain = 0
KVA1 252138Z 11014KT 34/06 A2998 RMK A01 T03350061  RH  018%=      5-min Rain = 0
KVA1 252139Z 10015KT 33/06 A2998 RMK A01 T03340063  RH  018%=      5-min Rain = 0
KVA1 252140Z 11019KT 33/06 A2998 RMK A01 T03340063  RH  019%=      5-min Rain = 0
KVA1 252141Z 10017KT 33/06 A2997 RMK A01 T03320063  RH  019%=      5-min Rain = 0
KVA1 252142Z 10016KT 33/06 A2997 RMK A01 T03320064  RH  019%=      5-min Rain = 0
KVA1 252143Z 12018G25KT 33/06 A2997 RMK A01 T03320064  RH  019%=      5-min Rain = 0
KVA1 252144Z 11018G23KT 33/07 A2997 RMK A01 T03330065  RH  019%=      5-min Rain = 0
KVA1 252145Z 12016G21KT 33/07 A2997 RMK A01 T03330065  RH  019%=      5-min Rain = 0
KVA1 252146Z 11019KT 33/07 A2997 RMK A01 T03330065  RH  019%=      5-min Rain = 0
KVA1 252147Z 11020KT 33/07 A2997 RMK A01 T03330065  RH  019%=      5-min Rain = 0
KVA1 252148Z 10016KT 33/07 A2997 RMK A01 T03310066  RH  019%=      5-min Rain = 0
KVA1 252149Z 11015G20KT 33/07 A2997 RMK A01 T03310066  RH  019%=      5-min Rain = 0
KVA1 252150Z 11018G23KT 33/07 A2997 RMK A01 T03310066  RH  019%=      5-min Rain = 0
KVA1 252151Z 10015KT 33/07 A2997 RMK A01 T03300066  RH  019%=      5-min Rain = 0
KVA1 252152Z 10014KT 33/07 A2997 RMK A01 T03300065  RH  019%=      5-min Rain = 0
KVA1 252153Z 10016G22KT 33/06 A2997 RMK A01 T03290064  RH  019%=      5-min Rain = 0
KVA1 252154Z 11012G17KT 33/06 A2997 RMK A01 T03280064  RH  019%=      5-min Rain = 0
KVA1 252155Z 10016KT 33/07 A2997 RMK A01 T03290065  RH  019%=      5-min Rain = 0
KVA1 252156Z 10016G21KT 33/06 A2997 RMK A01 T03290064  RH  019%=      5-min Rain = 0
KVA1 252157Z 10016KT 33/06 A2997 RMK A01 T03280063  RH  019%=      5-min Rain = 0
KVA1 252158Z 10016G21KT 33/06 A2997 RMK A01 T03270063  RH  019%=      5-min Rain = 0
KVA1 252159Z 09018G23KT 33/06 A2997 RMK A01 T03270063  RH  019%=      5-min Rain = 0
KVA1 252200Z 09018KT 33/06 A2997 RMK A01 T03270063  RH  019%=      5-min Rain = 0
KVA1 252201Z 10016KT 33/06 A2997 RMK A01 T03260063  RH  019%=      5-min Rain = 0
KVA1 252202Z 10017KT 33/06 A2997 RMK A01 T03270064  RH  019%=      5-min Rain = 0
KVA1 252203Z 09015G20KT 33/07 A2997 RMK A01 T03270065  RH  020%=      5-min Rain = 0
KVA1 252204Z 09018G23KT 33/07 A2997 RMK A01 T03260066  RH  020%=      5-min Rain = 0
KVA1 252205Z 10020KT 33/06 A2997 RMK A01 T03260064  RH  019%=      5-min Rain = 0
KVA1 252206Z 11017KT 33/06 A2997 RMK A01 T03260062  RH  019%=      5-min Rain = 0
KVA1 252207Z 09013KT 33/06 A2997 RMK A01 T03250064  RH  020%=      5-min Rain = 0
KVA1 252208Z 10014G19KT 33/07 A2997 RMK A01 T03260067  RH  020%=      5-min Rain = 0
KVA1 252209Z 10015KT 33/06 A2997 RMK A01 T03270063  RH  019%=      5-min Rain = 0
KVA1 252210Z 11015G20KT 33/06 A2997 RMK A01 T03270062  RH  019%=      5-min Rain = 0
KVA1 252211Z 12014KT 33/06 A2997 RMK A01 T03280061  RH  019%=      5-min Rain = 0
KVA1 252212Z 11015G20KT 33/06 A2997 RMK A01 T03280060  RH  019%=      5-min Rain = 0
KVA1 252213Z 10013KT 33/06 A2997 RMK A01 T03280060  RH  019%=      5-min Rain = 0
KVA1 252214Z 11013KT 33/06 A2997 RMK A01 T03280061  RH  019%=      5-min Rain = 0
KVA1 252215Z 11011KT 33/06 A2997 RMK A01 T03280061  RH  019%=      5-min Rain = 0
KVA1 252216Z 10014KT 33/06 A2997 RMK A01 T03280062  RH  019%=      5-min Rain = 0
KVA1 252217Z 10016KT 33/06 A2998 RMK A01 T03280061  RH  019%=      5-min Rain = 0
KVA1 252218Z 11016KT 33/06 A2998 RMK A01 T03270061  RH  019%=      5-min Rain = 0
KVA1 252219Z 11016G21KT 33/06 A2998 RMK A01 T03260060  RH  019%=      5-min Rain = 0
KVA1 252220Z 11017KT 33/06 A2998 RMK A01 T03250059  RH  019%=      5-min Rain = 0
KVA1 252221Z 11015KT 33/06 A2998 RMK A01 T03250059  RH  019%=      5-min Rain = 0
KVA1 252222Z 10014KT 33/06 A2998 RMK A01 T03250060  RH  019%=      5-min Rain = 0
KVA1 252223Z 11011KT 33/06 A2998 RMK A01 T03250060  RH  019%=      5-min Rain = 0
KVA1 252224Z 10010KT 33/06 A2998 RMK A01 T03260059  RH  019%=      5-min Rain = 0
KVA1 252225Z 11010KT 33/06 A2998 RMK A01 T03260059  RH  019%=      5-min Rain = 0
KVA1 252226Z 12008KT 33/06 A2998 RMK A01 T03260058  RH  019%=      5-min Rain = 0
KVA1 252227Z 11013KT 33/06 A2998 RMK A01 T03260058  RH  019%=      5-min Rain = 0
KVA1 252228Z 12012G17KT 33/06 A2998 RMK A01 T03260057  RH  019%=      5-min Rain = 0
KVA1 252229Z 12010KT 33/06 A2998 RMK A01 T03260056  RH  018%=      5-min Rain = 0
KVA1 252230Z 12010KT 33/06 A2999 RMK A01 T03260056  RH  018%=      5-min Rain = 0
KVA1 252231Z 12012KT 33/06 A2999 RMK A01 T03270055  RH  018%=      5-min Rain = 0
KVA1 252232Z 12012KT 33/06 A2999 RMK A01 T03270055  RH  018%=      5-min Rain = 0
KVA1 252233Z 12009KT 33/06 A2998 RMK A01 T03260055  RH  018%=      5-min Rain = 0
KVA1 252234Z 12012G17KT 33/06 A2999 RMK A01 T03270055  RH  018%=      5-min Rain = 0
KVA1 252235Z 12009KT 33/06 A2999 RMK A01 T03270055  RH  018%=      5-min Rain = 0
KVA1 252236Z 12013KT 33/06 A2999 RMK A01 T03270055  RH  018%=      5-min Rain = 0
KVA1 252237Z 12010KT 33/05 A2999 RMK A01 T03270054  RH  018%=      5-min Rain = 0
KVA1 252238Z 12010KT 33/06 A2999 RMK A01 T03270055  RH  018%=      5-min Rain = 0
KVA1 252239Z 13010KT 33/06 A2999 RMK A01 T03280055  RH  018%=      5-min Rain = 0
KVA1 252240Z 13012KT 33/06 A2999 RMK A01 T03280055  RH  018%=      5-min Rain = 0
KVA1 252241Z 12011KT 33/06 A2999 RMK A01 T03280055  RH  018%=      5-min Rain = 0
KVA1 252242Z 12011KT 33/06 A2999 RMK A01 T03290056  RH  018%=      5-min Rain = 0
KVA1 252243Z 12011KT 33/06 A2999 RMK A01 T03290056  RH  018%=      5-min Rain = 0
KVA1 252244Z 12010KT 33/06 A2998 RMK A01 T03290056  RH  018%=      5-min Rain = 0
KVA1 252245Z 12011KT 33/06 A2998 RMK A01 T03290056  RH  018%=      5-min Rain = 0
KVA1 252246Z 11013KT 33/06 A2998 RMK A01 T03290057  RH  018%=      5-min Rain = 0
KVA1 252247Z 12011KT 33/06 A2998 RMK A01 T03290057  RH  018%=      5-min Rain = 0
KVA1 252248Z 12012KT 33/06 A2998 RMK A01 T03290058  RH  018%=      5-min Rain = 0
KVA1 252249Z 13012KT 33/06 A2998 RMK A01 T03300057  RH  018%=      5-min Rain = 0
KVA1 252250Z 13010KT 33/06 A2998 RMK A01 T03300056  RH  018%=      5-min Rain = 0
KVA1 252251Z 13010KT 33/06 A2999 RMK A01 T03300056  RH  018%=      5-min Rain = 0
KVA1 252252Z 14009KT 33/06 A2999 RMK A01 T03310056  RH  018%=      5-min Rain = 0
KVA1 252253Z 15010KT 33/06 A2999 RMK A01 T03310056  RH  018%=      5-min Rain = 0
KVA1 252254Z 16009KT 33/06 A2999 RMK A01 T03320057  RH  018%=      5-min Rain = 0
KVA1 252255Z 15011KT 33/06 A2999 RMK A01 T03340061  RH  018%=      5-min Rain = 0
KVA1 252256Z 15013KT 34/06 A2999 RMK A01 T03360062  RH  018%=      5-min Rain = 0
KVA1 252257Z 14011KT 34/06 A2999 RMK A01 T03350061  RH  018%=      5-min Rain = 0
KVA1 252258Z 15011KT 34/06 A2999 RMK A01 T03360061  RH  018%=      5-min Rain = 0
KVA1 252259Z 14011KT 34/06 A2999 RMK A01 T03350061  RH  018%=      5-min Rain = 0
KVA1 252300Z 15010KT 34/06 A2998 RMK A01 T03350061  RH  018%=      5-min Rain = 0
KVA1 252301Z 14010KT 33/06 A2998 RMK A01 T03340061  RH  018%=      5-min Rain = 0
KVA1 252302Z 15010KT 34/06 A2998 RMK A01 T03350061  RH  018%=      5-min Rain = 0
KVA1 252303Z 16010KT 34/06 A2998 RMK A01 T03350061  RH  018%=      5-min Rain = 0
KVA1 252304Z 16010KT 33/06 A2998 RMK A01 T03340060  RH  018%=      5-min Rain = 0
KVA1 252305Z 17010KT 34/06 A2998 RMK A01 T03350060  RH  018%=      5-min Rain = 0
KVA1 252306Z 18010KT 34/06 A2998 RMK A01 T03350059  RH  018%=      5-min Rain = 0
KVA1 252307Z 22010KT 34/06 A2999 RMK A01 T03350059  RH  018%=      5-min Rain = 0
KVA1 252308Z 21012KT 34/06 A2999 RMK A01 T03350059  RH  018%=      5-min Rain = 0
KVA1 252309Z 22016KT 33/05 A2999 RMK A01 T03330052  RH  017%=      5-min Rain = 0
KVA1 252310Z 22019G24KT 33/05 A2999 RMK A01 T03300052  RH  018%=      5-min Rain = 0
KVA1 252311Z 24016KT 33/05 A2999 RMK A01 T03270052  RH  018%=      5-min Rain = 0
KVA1 252312Z 24016KT 33/05 A2999 RMK A01 T03260052  RH  018%=      5-min Rain = 0
KVA1 252313Z 23015KT 33/05 A2999 RMK A01 T03260053  RH  018%=      5-min Rain = 0
KVA1 252314Z 23017G25KT 33/05 A2999 RMK A01 T03270053  RH  018%=      5-min Rain = 0
KVA1 252315Z 23017KT 33/05 A2998 RMK A01 T03260050  RH  018%=      5-min Rain = 0
KVA1 252316Z 23018KT 33/05 A2999 RMK A01 T03250049  RH  018%=      5-min Rain = 0
KVA1 252317Z 23018KT 33/05 A2999 RMK A01 T03250048  RH  018%=      5-min Rain = 0
KVA1 252318Z 23015KT 32/05 A2999 RMK A01 T03240048  RH  018%=      5-min Rain = 0
KVA1 252319Z 23014KT 32/05 A2999 RMK A01 T03240048  RH  018%=      5-min Rain = 0
KVA1 252320Z 24012KT 33/05 A2999 RMK A01 T03250047  RH  017%=      5-min Rain = 0
KVA1 252321Z 23013KT 33/05 A2999 RMK A01 T03260048  RH  017%=      5-min Rain = 0
KVA1 252322Z 23013KT 33/05 A2998 RMK A01 T03260050  RH  018%=      5-min Rain = 0
KVA1 252323Z 22011KT 33/05 A2998 RMK A01 T03250052  RH  018%=      5-min Rain = 0
KVA1 252324Z 22011KT 33/05 A2998 RMK A01 T03250053  RH  018%=      5-min Rain = 0
KVA1 252325Z 22011KT 33/05 A2998 RMK A01 T03260054  RH  018%=      5-min Rain = 0
KVA1 252326Z 22014KT 33/06 A2998 RMK A01 T03260058  RH  019%=      5-min Rain = 0
KVA1 252327Z 22013KT 33/06 A2998 RMK A01 T03260063  RH  019%=      5-min Rain = 0
KVA1 252328Z 22011KT 33/06 A2998 RMK A01 T03250062  RH  019%=      5-min Rain = 0
KVA1 252329Z 21013KT 33/06 A2998 RMK A01 T03250063  RH  020%=      5-min Rain = 0
KVA1 252330Z 21012KT 33/06 A2998 RMK A01 T03250062  RH  019%=      5-min Rain = 0
KVA1 252331Z 21010KT 33/06 A2998 RMK A01 T03250063  RH  019%=      5-min Rain = 0
KVA1 252332Z 21013KT 33/06 A2998 RMK A01 T03280059  RH  019%=      5-min Rain = 0
KVA1 252333Z 21012KT 33/06 A2998 RMK A01 T03280060  RH  019%=      5-min Rain = 0
KVA1 252334Z 22009KT 33/06 A2998 RMK A01 T03280061  RH  019%=      5-min Rain = 0
KVA1 252335Z 22009KT 33/06 A2998 RMK A01 T03280061  RH  019%=      5-min Rain = 0
KVA1 252336Z 23010KT 33/06 A2998 RMK A01 T03290058  RH  018%=      5-min Rain = 0
KVA1 252337Z 21009KT 33/06 A2998 RMK A01 T03310055  RH  018%=      5-min Rain = 0
KVA1 252338Z 20009KT 33/06 A2998 RMK A01 T03340057  RH  018%=      5-min Rain = 0
KVA1 252339Z 19010KT 34/06 A2998 RMK A01 T03360058  RH  018%=      5-min Rain = 0
KVA1 252340Z 19012KT 34/06 A2998 RMK A01 T03370059  RH  018%=      5-min Rain = 0
KVA1 252341Z 20013KT 34/06 A2998 RMK A01 T03370058  RH  018%=      5-min Rain = 0
KVA1 252342Z 20014KT 34/06 A2998 RMK A01 T03360058  RH  018%=      5-min Rain = 0
KVA1 252343Z 19012KT 33/06 A2998 RMK A01 T03340057  RH  018%=      5-min Rain = 0
KVA1 252344Z 19008KT 33/06 A2998 RMK A01 T03330055  RH  018%=      5-min Rain = 0
KVA1 252345Z 20008KT 33/06 A2998 RMK A01 T03340056  RH  018%=      5-min Rain = 0
KVA1 252346Z 20009KT 34/06 A2998 RMK A01 T03360056  RH  017%=      5-min Rain = 0
KVA1 252347Z 19009KT 34/06 A2998 RMK A01 T03380056  RH  017%=      5-min Rain = 0
KVA1 252348Z 19007KT 34/05 A2998 RMK A01 T03370049  RH  017%=      5-min Rain = 0
KVA1 252349Z 19010KT 34/05 A2997 RMK A01 T03370051  RH  017%=      5-min Rain = 0
KVA1 252350Z 18009KT 34/05 A2997 RMK A01 T03380049  RH  016%=      5-min Rain = 0
KVA1 252351Z 18008KT 34/05 A2997 RMK A01 T03390048  RH  016%=      5-min Rain = 0
KVA1 252352Z 18011KT 34/05 A2997 RMK A01 T03400050  RH  016%=      5-min Rain = 0
KVA1 252353Z 18010KT 34/05 A2997 RMK A01 T03400049  RH  016%=      5-min Rain = 0
KVA1 252354Z 18011KT 34/05 A2997 RMK A01 T03410046  RH  016%=      5-min Rain = 0
KVA1 252355Z 18009KT 34/05 A2997 RMK A01 T03400049  RH  016%=      5-min Rain = 0
KVA1 252356Z 21009KT 34/05 A2997 RMK A01 T03390051  RH  017%=      5-min Rain = 0
KVA1 252357Z 20007KT 34/05 A2997 RMK A01 T03390053  RH  017%=      5-min Rain = 0
KVA1 252358Z 17006KT 34/05 A2997 RMK A01 T03380054  RH  017%=      5-min Rain = 0
KVA1 252359Z 16009KT 34/06 A2997 RMK A01 T03380057  RH  017%=      5-min Rain = 0
KVA1 260000Z 17013KT 34/06 A2997 RMK A01 T03400058  RH  017%=      5-min Rain = 0
KVA1 260001Z 18012KT 34/06 A2997 RMK A01 T03400057  RH  017%=      5-min Rain = 0
KVA1 260002Z 17012KT 34/06 A2997 RMK A01 T03410060  RH  018%=      5-min Rain = 0
KVA1 260003Z 17012KT 34/06 A2997 RMK A01 T03410061  RH  018%=      5-min Rain = 0
KVA1 260004Z 17012KT 34/06 A2997 RMK A01 T03400061  RH  018%=      5-min Rain = 0
KVA1 260005Z 17008KT 34/06 A2997 RMK A01 T03390061  RH  018%=      5-min Rain = 0
KVA1 260006Z 18010KT 34/06 A2997 RMK A01 T03390061  RH  018%=      5-min Rain = 0
KVA1 260007Z 17008KT 34/06 A2997 RMK A01 T03380061  RH  018%=      5-min Rain = 0
KVA1 260008Z 16008KT 34/06 A2997 RMK A01 T03380061  RH  018%=      5-min Rain = 0
KVA1 260009Z 15007KT 34/06 A2997 RMK A01 T03400059  RH  018%=      5-min Rain = 0
KVA1 260010Z 16007KT 34/06 A2997 RMK A01 T03400058  RH  017%=      5-min Rain = 0
KVA1 260011Z 16008KT 34/06 A2997 RMK A01 T03380057  RH  017%=      5-min Rain = 0
KVA1 260012Z 16007KT 34/06 A2997 RMK A01 T03370057  RH  017%=      5-min Rain = 0
KVA1 260013Z 16011KT 34/06 A2997 RMK A01 T03390059  RH  018%=      5-min Rain = 0
KVA1 260014Z 15012KT 34/06 A2997 RMK A01 T03390062  RH  018%=      5-min Rain = 0
KVA1 260015Z 15006KT 34/06 A2997 RMK A01 T03390063  RH  018%=      5-min Rain = 0
KVA1 260016Z 16006KT 34/06 A2997 RMK A01 T03380062  RH  018%=      5-min Rain = 0
KVA1 260017Z 16006KT 34/06 A2997 RMK A01 T03370063  RH  018%=      5-min Rain = 0
KVA1 260018Z 18011KT 34/06 A2997 RMK A01 T03380064  RH  018%=      5-min Rain = 0
KVA1 260019Z 18010KT 34/06 A2997 RMK A01 T03370062  RH  018%=      5-min Rain = 0
KVA1 260020Z 17009KT 33/06 A2997 RMK A01 T03340062  RH  018%=      5-min Rain = 0
KVA1 260021Z 16011KT 33/06 A2997 RMK A01 T03340061  RH  018%=      5-min Rain = 0
KVA1 260022Z 15010KT 34/06 A2997 RMK A01 T03350059  RH  018%=      5-min Rain = 0
KVA1 260023Z 15010KT 34/06 A2997 RMK A01 T03360059  RH  018%=      5-min Rain = 0
KVA1 260024Z 15012KT 34/06 A2997 RMK A01 T03360060  RH  018%=      5-min Rain = 0
KVA1 260025Z 14011KT 34/06 A2997 RMK A01 T03350060  RH  018%=      5-min Rain = 0
KVA1 260026Z 14008KT 34/06 A2997 RMK A01 T03350060  RH  018%=      5-min Rain = 0
KVA1 260027Z 13008KT 34/06 A2997 RMK A01 T03350060  RH  018%=      5-min Rain = 0
KVA1 260028Z 11006KT 34/06 A2997 RMK A01 T03360060  RH  018%=      5-min Rain = 0
KVA1 260029Z 12007KT 34/06 A2996 RMK A01 T03350060  RH  018%=      5-min Rain = 0
KVA1 260030Z 12003KT 33/06 A2996 RMK A01 T03340060  RH  018%=      5-min Rain = 0
KVA1 260031Z 08005KT 33/06 A2996 RMK A01 T03340062  RH  018%=      5-min Rain = 0
KVA1 260032Z 11003KT 33/06 A2996 RMK A01 T03330061  RH  018%=      5-min Rain = 0
KVA1 260033Z 13008KT 33/06 A2996 RMK A01 T03320062  RH  019%=      5-min Rain = 0
KVA1 260034Z 14009KT 33/06 A2996 RMK A01 T03320063  RH  019%=      5-min Rain = 0
KVA1 260035Z 15011KT 33/07 A2996 RMK A01 T03330065  RH  019%=      5-min Rain = 0
KVA1 260036Z 15010KT 33/07 A2996 RMK A01 T03330065  RH  019%=      5-min Rain = 0
KVA1 260037Z 15008KT 33/06 A2997 RMK A01 T03320064  RH  019%=      5-min Rain = 0
KVA1 260038Z 15010KT 33/06 A2997 RMK A01 T03320063  RH  019%=      5-min Rain = 0
KVA1 260039Z 15010KT 33/06 A2997 RMK A01 T03320062  RH  019%=      5-min Rain = 0
KVA1 260040Z 15009KT 33/06 A2997 RMK A01 T03320063  RH  019%=      5-min Rain = 0
KVA1 260041Z 14007KT 33/06 A2997 RMK A01 T03320063  RH  019%=      5-min Rain = 0
KVA1 260042Z 15010KT 33/07 A2997 RMK A01 T03340065  RH  019%=      5-min Rain = 0
KVA1 260043Z 15011KT 33/07 A2997 RMK A01 T03340066  RH  019%=      5-min Rain = 0
KVA1 260044Z 17012KT 33/07 A2997 RMK A01 T03330068  RH  019%=      5-min Rain = 0
KVA1 260045Z 18011KT 33/07 A2997 RMK A01 T03320071  RH  020%=      5-min Rain = 0
KVA1 260046Z 20012KT 33/08 A2997 RMK A01 T03290075  RH  021%=      5-min Rain = 0
KVA1 260047Z 19012KT 33/08 A2997 RMK A01 T03270076  RH  021%=      5-min Rain = 0
KVA1 260048Z 20013KT 32/08 A2997 RMK A01 T03240076  RH  021%=      5-min Rain = 0
KVA1 260049Z 20011KT 32/08 A2997 RMK A01 T03230078  RH  022%=      5-min Rain = 0
KVA1 260050Z 19012KT 32/08 A2997 RMK A01 T03210081  RH  022%=      5-min Rain = 0
KVA1 260051Z 19011KT 32/08 A2997 RMK A01 T03210082  RH  023%=      5-min Rain = 0
KVA1 260052Z 18011KT 32/08 A2997 RMK A01 T03200082  RH  023%=      5-min Rain = 0
KVA1 260053Z 18009KT 32/08 A2997 RMK A01 T03200081  RH  023%=      5-min Rain = 0
KVA1 260054Z 19008KT 32/08 A2997 RMK A01 T03210081  RH  023%=      5-min Rain = 0
KVA1 260055Z 19011KT 32/08 A2997 RMK A01 T03220078  RH  022%=      5-min Rain = 0
KVA1 260056Z 18013KT 32/08 A2997 RMK A01 T03220075  RH  022%=      5-min Rain = 0
KVA1 260057Z 18012KT 32/08 A2997 RMK A01 T03220075  RH  022%=      5-min Rain = 0
KVA1 260058Z 18012KT 32/08 A2997 RMK A01 T03210076  RH  022%=      5-min Rain = 0
KVA1 260059Z 18011KT 32/08 A2997 RMK A01 T03210077  RH  022%=      5-min Rain = 0
KVA1 260100Z 18011KT 32/08 A2997 RMK A01 T03210078  RH  022%=      5-min Rain = 0
KVA1 260101Z 19010KT 32/08 A2997 RMK A01 T03210079  RH  022%=      5-min Rain = 0
KVA1 260102Z 19011KT 32/08 A2997 RMK A01 T03220079  RH  022%=      5-min Rain = 0
KVA1 260103Z 18010KT 32/08 A2997 RMK A01 T03220079  RH  022%=      5-min Rain = 0
KVA1 260104Z 18008G13KT 32/08 A2997 RMK A01 T03220079  RH  022%=      5-min Rain = 0
KVA1 260105Z 19011KT 32/08 A2997 RMK A01 T03220077  RH  022%=      5-min Rain = 0
KVA1 260106Z 20008KT 32/08 A2997 RMK A01 T03220076  RH  022%=      5-min Rain = 0
KVA1 260107Z 19008KT 32/08 A2997 RMK A01 T03220076  RH  022%=      5-min Rain = 0
KVA1 260108Z 18009KT 32/08 A2997 RMK A01 T03220076  RH  022%=      5-min Rain = 0
KVA1 260109Z 16008KT 32/07 A2997 RMK A01 T03220074  RH  021%=      5-min Rain = 0
KVA1 260110Z 16011KT 32/07 A2997 RMK A01 T03230072  RH  021%=      5-min Rain = 0
KVA1 260111Z 18010KT 32/07 A2997 RMK A01 T03230071  RH  021%=      5-min Rain = 0
KVA1 260112Z 18009KT 32/07 A2997 RMK A01 T03230070  RH  021%=      5-min Rain = 0
KVA1 260113Z 18008KT 32/07 A2997 RMK A01 T03230071  RH  021%=      5-min Rain = 0
KVA1 260114Z 18009KT 32/07 A2997 RMK A01 T03240071  RH  021%=      5-min Rain = 0
KVA1 260115Z 19010KT 33/07 A2997 RMK A01 T03250072  RH  021%=      5-min Rain = 0
KVA1 260116Z 18011KT 32/07 A2997 RMK A01 T03240072  RH  021%=      5-min Rain = 0
KVA1 260117Z 17012KT 32/07 A2997 RMK A01 T03240071  RH  021%=      5-min Rain = 0
KVA1 260118Z 18012KT 32/07 A2997 RMK A01 T03230069  RH  021%=      5-min Rain = 0
KVA1 260119Z 17011KT 32/07 A2997 RMK A01 T03230068  RH  020%=      5-min Rain = 0
KVA1 260120Z 17011KT 32/07 A2998 RMK A01 T03230067  RH  020%=      5-min Rain = 0
KVA1 260121Z 17011KT 32/07 A2998 RMK A01 T03230067  RH  020%=      5-min Rain = 0
KVA1 260122Z 18009KT 32/07 A2998 RMK A01 T03220067  RH  020%=      5-min Rain = 0
KVA1 260123Z 17007KT 32/07 A2998 RMK A01 T03220068  RH  020%=      5-min Rain = 0
KVA1 260124Z 16004KT 32/07 A2998 RMK A01 T03230068  RH  020%=      5-min Rain = 0
KVA1 260125Z 17007KT 32/07 A2998 RMK A01 T03230067  RH  020%=      5-min Rain = 0
KVA1 260126Z 17007KT 32/07 A2998 RMK A01 T03230068  RH  020%=      5-min Rain = 0
KVA1 260127Z 16010KT 32/07 A2998 RMK A01 T03230067  RH  020%=      5-min Rain = 0
KVA1 260128Z 16014KT 32/07 A2998 RMK A01 T03230066  RH  020%=      5-min Rain = 0
KVA1 260129Z 17009KT 32/06 A2998 RMK A01 T03230064  RH  020%=      5-min Rain = 0
KVA1 260130Z 16012KT 32/06 A2998 RMK A01 T03220064  RH  020%=      5-min Rain = 0
KVA1 260131Z 16013KT 32/06 A2998 RMK A01 T03220064  RH  020%=      5-min Rain = 0
KVA1 260132Z 17010KT 32/06 A2998 RMK A01 T03220064  RH  020%=      5-min Rain = 0
KVA1 260133Z 17009KT 32/06 A2998 RMK A01 T03210064  RH  020%=      5-min Rain = 0
KVA1 260134Z 17012KT 32/06 A2998 RMK A01 T03210064  RH  020%=      5-min Rain = 0
KVA1 260135Z 16013KT 32/06 A2998 RMK A01 T03210061  RH  020%=      5-min Rain = 0
KVA1 260136Z 16010KT 32/06 A2998 RMK A01 T03200061  RH  020%=      5-min Rain = 0
KVA1 260137Z 16012KT 32/06 A2998 RMK A01 T03200061  RH  020%=      5-min Rain = 0
KVA1 260138Z 16013KT 32/06 A2998 RMK A01 T03190061  RH  020%=      5-min Rain = 0
KVA1 260139Z 17009KT 32/06 A2998 RMK A01 T03190060  RH  020%=      5-min Rain = 0
KVA1 260140Z 17010KT 32/06 A2998 RMK A01 T03190060  RH  020%=      5-min Rain = 0
KVA1 260141Z 16011KT 32/06 A2998 RMK A01 T03180060  RH  020%=      5-min Rain = 0
KVA1 260142Z 17010KT 32/06 A2998 RMK A01 T03180059  RH  020%=      5-min Rain = 0
KVA1 260143Z 17010KT 32/06 A2998 RMK A01 T03180059  RH  020%=      5-min Rain = 0
KVA1 260144Z 17009KT 32/06 A2998 RMK A01 T03170059  RH  020%=      5-min Rain = 0
KVA1 260145Z 17009KT 32/06 A2998 RMK A01 T03170059  RH  020%=      5-min Rain = 0
KVA1 260146Z 18010KT 32/06 A2998 RMK A01 T03170059  RH  020%=      5-min Rain = 0
KVA1 260147Z 18009KT 32/06 A2998 RMK A01 T03170059  RH  020%=      5-min Rain = 0
KVA1 260148Z 18009KT 32/06 A2998 RMK A01 T03170060  RH  020%=      5-min Rain = 0
KVA1 260149Z 18010KT 32/06 A2998 RMK A01 T03160059  RH  020%=      5-min Rain = 0
KVA1 260150Z 17008KT 32/06 A2998 RMK A01 T03160060  RH  020%=      5-min Rain = 0
KVA1 260151Z 18008KT 32/06 A2998 RMK A01 T03150060  RH  020%=      5-min Rain = 0
KVA1 260152Z 18010KT 31/06 A2998 RMK A01 T03140060  RH  020%=      5-min Rain = 0
KVA1 260153Z 18009KT 31/06 A2998 RMK A01 T03140060  RH  020%=      5-min Rain = 0
KVA1 260154Z 18010KT 31/06 A2998 RMK A01 T03140060  RH  020%=      5-min Rain = 0
KVA1 260155Z 18009KT 31/06 A2998 RMK A01 T03130060  RH  020%=      5-min Rain = 0
KVA1 260156Z 18007KT 31/06 A2998 RMK A01 T03130061  RH  020%=      5-min Rain = 0
KVA1 260157Z 18008KT 31/06 A2998 RMK A01 T03130060  RH  021%=      5-min Rain = 0
KVA1 260158Z 18007KT 31/06 A2998 RMK A01 T03120060  RH  021%=      5-min Rain = 0
KVA1 260159Z 18008KT 31/06 A2998 RMK A01 T03120061  RH  021%=      5-min Rain = 0
KVA1 260200Z 18007KT 31/06 A2998 RMK A01 T03120060  RH  021%=      5-min Rain = 0
KVA1 260201Z 18009KT 31/06 A2998 RMK A01 T03110060  RH  021%=      5-min Rain = 0
KVA1 260202Z 18008KT 31/06 A2998 RMK A01 T03110060  RH  021%=      5-min Rain = 0
KVA1 260203Z 18008KT 31/06 A2998 RMK A01 T03110060  RH  021%=      5-min Rain = 0
KVA1 260204Z 18008KT 31/06 A2998 RMK A01 T03100060  RH  021%=      5-min Rain = 0
KVA1 260205Z 18008KT 31/06 A2998 RMK A01 T03100060  RH  021%=      5-min Rain = 0
KVA1 260206Z 18007KT 31/06 A2998 RMK A01 T03100060  RH  021%=      5-min Rain = 0
KVA1 260207Z 19006KT 31/06 A2998 RMK A01 T03100060  RH  021%=      5-min Rain = 0
KVA1 260208Z 19006KT 31/06 A2998 RMK A01 T03090059  RH  021%=      5-min Rain = 0
KVA1 260209Z 19005KT 31/06 A2998 RMK A01 T03090060  RH  021%=      5-min Rain = 0
KVA1 260210Z 20004KT 31/06 A2998 RMK A01 T03070059  RH  021%=      5-min Rain = 0
KVA1 260211Z 21005KT 31/06 A2998 RMK A01 T03070060  RH  021%=      5-min Rain = 0
KVA1 260212Z 20004KT 31/06 A2998 RMK A01 T03060060  RH  021%=      5-min Rain = 0
KVA1 260213Z 21004KT 31/06 A2998 RMK A01 T03050060  RH  021%=      5-min Rain = 0
KVA1 260214Z 21005KT 30/06 A2998 RMK A01 T03040060  RH  022%=      5-min Rain = 0
KVA1 260215Z 22004KT 30/06 A2998 RMK A01 T03030060  RH  022%=      5-min Rain = 0
KVA1 260216Z 23004KT 30/06 A2998 RMK A01 T03020061  RH  022%=      5-min Rain = 0
KVA1 260217Z 23004KT 30/06 A2998 RMK A01 T03010061  RH  022%=      5-min Rain = 0
KVA1 260218Z 22004KT 30/06 A2998 RMK A01 T02990061  RH  022%=      5-min Rain = 0
KVA1 260219Z 22004KT 30/06 A2998 RMK A01 T02980061  RH  022%=      5-min Rain = 0
KVA1 260220Z 23005KT 30/06 A2998 RMK A01 T02970062  RH  023%=      5-min Rain = 0
KVA1 260221Z 23005KT 30/06 A2998 RMK A01 T02960062  RH  023%=      5-min Rain = 0
KVA1 260222Z 22005KT 30/06 A2998 RMK A01 T02950062  RH  023%=      5-min Rain = 0
KVA1 260223Z 23006KT 29/06 A2998 RMK A01 T02940062  RH  023%=      5-min Rain = 0
KVA1 260224Z 22006KT 29/06 A2998 RMK A01 T02930063  RH  023%=      5-min Rain = 0
KVA1 260225Z 22005KT 29/06 A2998 RMK A01 T02930064  RH  023%=      5-min Rain = 0
KVA1 260226Z 22006KT 29/06 A2998 RMK A01 T02920064  RH  024%=      5-min Rain = 0
KVA1 260227Z 22005KT 29/06 A2998 RMK A01 T02920064  RH  024%=      5-min Rain = 0
KVA1 260228Z 21006KT 29/06 A2998 RMK A01 T02920064  RH  024%=      5-min Rain = 0
KVA1 260229Z 21006KT 29/07 A2998 RMK A01 T02920065  RH  024%=      5-min Rain = 0
KVA1 260230Z 21006KT 29/07 A2998 RMK A01 T02920065  RH  024%=      5-min Rain = 0
KVA1 260231Z 21006KT 29/07 A2998 RMK A01 T02920065  RH  024%=      5-min Rain = 0
KVA1 260232Z 21006KT 29/07 A2998 RMK A01 T02920066  RH  024%=      5-min Rain = 0
KVA1 260233Z 21005KT 29/07 A2998 RMK A01 T02920065  RH  024%=      5-min Rain = 0
KVA1 260234Z 21005KT 29/07 A2998 RMK A01 T02920066  RH  024%=      5-min Rain = 0
KVA1 260235Z 21005KT 29/07 A2998 RMK A01 T02910066  RH  024%=      5-min Rain = 0
KVA1 260236Z 21004KT 29/07 A2998 RMK A01 T02910066  RH  024%=      5-min Rain = 0
KVA1 260237Z 21005KT 29/07 A2998 RMK A01 T02910066  RH  024%=      5-min Rain = 0
KVA1 260238Z 21004KT 29/07 A2998 RMK A01 T02900067  RH  024%=      5-min Rain = 0
KVA1 260239Z 22004KT 29/07 A2998 RMK A01 T02890066  RH  024%=      5-min Rain = 0
KVA1 260240Z 22004KT 29/07 A2998 RMK A01 T02890066  RH  025%=      5-min Rain = 0
KVA1 260241Z 22004KT 29/07 A2998 RMK A01 T02880066  RH  025%=      5-min Rain = 0
KVA1 260242Z 23003KT 29/07 A2998 RMK A01 T02880066  RH  025%=      5-min Rain = 0
KVA1 260243Z 23004KT 29/07 A2998 RMK A01 T02870066  RH  025%=      5-min Rain = 0
KVA1 260244Z 23004KT 29/07 A2998 RMK A01 T02860066  RH  025%=      5-min Rain = 0
KVA1 260245Z 24004KT 29/07 A2998 RMK A01 T02850066  RH  025%=      5-min Rain = 0
KVA1 260246Z 24004KT 28/07 A2998 RMK A01 T02840066  RH  025%=      5-min Rain = 0
KVA1 260247Z 24004KT 28/07 A2998 RMK A01 T02830066  RH  025%=      5-min Rain = 0
KVA1 260248Z 24004KT 28/07 A2999 RMK A01 T02830066  RH  025%=      5-min Rain = 0
KVA1 260249Z 24004KT 28/07 A2999 RMK A01 T02820066  RH  025%=      5-min Rain = 0
KVA1 260250Z 24004KT 28/07 A2999 RMK A01 T02810065  RH  025%=      5-min Rain = 0
KVA1 260251Z 25004KT 28/07 A2999 RMK A01 T02800065  RH  026%=      5-min Rain = 0
KVA1 260252Z 24004KT 28/07 A2999 RMK A01 T02790065  RH  026%=      5-min Rain = 0
KVA1 260253Z 24005KT 28/07 A2999 RMK A01 T02790065  RH  026%=      5-min Rain = 0
KVA1 260254Z 24005KT 28/07 A2999 RMK A01 T02780065  RH  026%=      5-min Rain = 0
KVA1 260255Z 23005KT 28/07 A2999 RMK A01 T02780066  RH  026%=      5-min Rain = 0
KVA1 260256Z 24005KT 28/07 A2999 RMK A01 T02780066  RH  026%=      5-min Rain = 0
KVA1 260257Z 23005KT 28/07 A2999 RMK A01 T02780066  RH  026%=      5-min Rain = 0
KVA1 260258Z 24004KT 28/07 A2999 RMK A01 T02770066  RH  026%=      5-min Rain = 0
KVA1 260259Z 23004KT 28/07 A2999 RMK A01 T02770066  RH  026%=      5-min Rain = 0
KVA1 260300Z 23004KT 28/07 A2999 RMK A01 T02770067  RH  026%=      5-min Rain = 0
KVA1 260301Z 23004KT 28/07 A2999 RMK A01 T02770067  RH  026%=      5-min Rain = 0
KVA1 260302Z 23004KT 28/07 A2999 RMK A01 T02770067  RH  026%=      5-min Rain = 0
KVA1 260303Z 23004KT 28/07 A2999 RMK A01 T02770067  RH  026%=      5-min Rain = 0
KVA1 260304Z 21003KT 28/07 A2999 RMK A01 T02770067  RH  027%=      5-min Rain = 0
KVA1 260305Z 21004KT 28/07 A2999 RMK A01 T02770068  RH  027%=      5-min Rain = 0
KVA1 260306Z 21004KT 28/07 A2999 RMK A01 T02770068  RH  027%=      5-min Rain = 0
KVA1 260307Z 21005KT 28/07 A2999 RMK A01 T02770068  RH  027%=      5-min Rain = 0
KVA1 260308Z 21005KT 28/07 A2999 RMK A01 T02770069  RH  027%=      5-min Rain = 0
KVA1 260309Z 20005KT 28/07 A2999 RMK A01 T02770068  RH  027%=      5-min Rain = 0
KVA1 260310Z 20005KT 28/07 A2999 RMK A01 T02770068  RH  027%=      5-min Rain = 0
KVA1 260311Z 20005KT 28/07 A2999 RMK A01 T02760068  RH  027%=      5-min Rain = 0
KVA1 260312Z 20006KT 28/07 A2999 RMK A01 T02770069  RH  027%=      5-min Rain = 0
KVA1 260313Z 20006KT 28/07 A2999 RMK A01 T02760069  RH  027%=      5-min Rain = 0
KVA1 260314Z 20006KT 28/07 A2999 RMK A01 T02760069  RH  027%=      5-min Rain = 0
KVA1 260315Z 20006KT 28/07 A2999 RMK A01 T02760069  RH  027%=      5-min Rain = 0
KVA1 260316Z 21005KT 28/07 A2999 RMK A01 T02750069  RH  027%=      5-min Rain = 0
KVA1 260317Z 21005KT 27/07 A2999 RMK A01 T02740069  RH  027%=      5-min Rain = 0
KVA1 260318Z 22006KT 27/07 A2999 RMK A01 T02730068  RH  027%=      5-min Rain = 0
KVA1 260319Z 22006KT 27/07 A2999 RMK A01 T02730068  RH  027%=      5-min Rain = 0
KVA1 260320Z 22006KT 27/07 A2999 RMK A01 T02710068  RH  027%=      5-min Rain = 0
KVA1 260321Z 22006KT 27/07 A30 RMK A01 T02710068  RH  028%=      5-min Rain = 0
KVA1 260322Z 22006KT 27/07 A30 RMK A01 T02710068  RH  028%=      5-min Rain = 0
KVA1 260323Z 22005KT 27/07 A30 RMK A01 T02700069  RH  028%=      5-min Rain = 0
KVA1 260324Z 22005KT 27/07 A30 RMK A01 T02700069  RH  028%=      5-min Rain = 0
KVA1 260325Z 23005KT 27/07 A30 RMK A01 T02700068  RH  028%=      5-min Rain = 0
KVA1 260326Z 23005KT 27/07 A30 RMK A01 T02690068  RH  028%=      5-min Rain = 0
KVA1 260327Z 23005KT 27/07 A30 RMK A01 T02680068  RH  028%=      5-min Rain = 0
KVA1 260328Z 24005KT 27/07 A30 RMK A01 T02670068  RH  028%=      5-min Rain = 0
KVA1 260329Z 23005KT 27/07 A30 RMK A01 T02660068  RH  028%=      5-min Rain = 0
KVA1 260330Z 23005KT 27/07 A30 RMK A01 T02660068  RH  028%=      5-min Rain = 0
KVA1 260331Z 23005KT 27/07 A30 RMK A01 T02660068  RH  028%=      5-min Rain = 0
KVA1 260332Z 23005KT 27/07 A30 RMK A01 T02650068  RH  028%=      5-min Rain = 0
KVA1 260333Z 23005KT 27/07 A30 RMK A01 T02650068  RH  028%=      5-min Rain = 0
KVA1 260334Z 23005KT 27/07 A30 RMK A01 T02650068  RH  029%=      5-min Rain = 0
KVA1 260335Z 24005KT 27/07 A30 RMK A01 T02650068  RH  029%=      5-min Rain = 0
KVA1 260336Z 24004KT 26/07 A3001 RMK A01 T02640067  RH  029%=      5-min Rain = 0
KVA1 260337Z 24004KT 26/07 A3001 RMK A01 T02630067  RH  029%=      5-min Rain = 0
KVA1 260338Z 24004KT 26/07 A3001 RMK A01 T02630067  RH  029%=      5-min Rain = 0
KVA1 260339Z 23004KT 26/07 A3001 RMK A01 T02620067  RH  029%=      5-min Rain = 0
KVA1 260340Z 23004KT 26/07 A3001 RMK A01 T02620067  RH  029%=      5-min Rain = 0
KVA1 260341Z 22005KT 26/07 A3001 RMK A01 T02620067  RH  029%=      5-min Rain = 0
KVA1 260342Z 22006KT 26/07 A3001 RMK A01 T02620067  RH  029%=      5-min Rain = 0
KVA1 260343Z 23006KT 26/07 A3001 RMK A01 T02620067  RH  029%=      5-min Rain = 0
KVA1 260344Z 23006KT 26/07 A3001 RMK A01 T02620067  RH  029%=      5-min Rain = 0
KVA1 260345Z 24006KT 26/07 A3001 RMK A01 T02610067  RH  029%=      5-min Rain = 0
KVA1 260346Z 23006KT 26/07 A3001 RMK A01 T02590066  RH  029%=      5-min Rain = 0
KVA1 260347Z 23006KT 26/07 A3001 RMK A01 T02590066  RH  029%=      5-min Rain = 0
KVA1 260348Z 23005KT 26/07 A3001 RMK A01 T02590066  RH  029%=      5-min Rain = 0
KVA1 260349Z 23006KT 26/07 A3001 RMK A01 T02590066  RH  029%=      5-min Rain = 0
KVA1 260350Z 22006KT 26/07 A3001 RMK A01 T02600067  RH  029%=      5-min Rain = 0
KVA1 260351Z 22006KT 26/07 A3001 RMK A01 T02600066  RH  029%=      5-min Rain = 0
KVA1 260352Z 22005KT 26/07 A3001 RMK A01 T02600067  RH  029%=      5-min Rain = 0
KVA1 260353Z 22005KT 26/07 A3001 RMK A01 T02610067  RH  029%=      5-min Rain = 0
KVA1 260354Z 22004KT 26/07 A3002 RMK A01 T02610066  RH  029%=      5-min Rain = 0
KVA1 260355Z 22004KT 26/07 A3002 RMK A01 T02610066  RH  029%=      5-min Rain = 0
KVA1 260356Z 22005KT 26/07 A3002 RMK A01 T02610066  RH  029%=      5-min Rain = 0
KVA1 260357Z 22005KT 26/07 A3002 RMK A01 T02610066  RH  029%=      5-min Rain = 0
KVA1 260358Z 23005KT 26/07 A3002 RMK A01 T02600066  RH  029%=      5-min Rain = 0
KVA1 260359Z 23005KT 26/07 A3002 RMK A01 T02580065  RH  029%=      5-min Rain = 0
KVA1 260400Z 23005KT 26/07 A3002 RMK A01 T02580065  RH  029%=      5-min Rain = 0
KVA1 260401Z 23006KT 26/07 A3002 RMK A01 T02570065  RH  029%=      5-min Rain = 0
KVA1 260402Z 22007KT 26/07 A3002 RMK A01 T02560065  RH  030%=      5-min Rain = 0
KVA1 260403Z 22007KT 26/07 A3002 RMK A01 T02570066  RH  030%=      5-min Rain = 0
KVA1 260404Z 22007KT 26/07 A3002 RMK A01 T02580066  RH  029%=      5-min Rain = 0
KVA1 260405Z 20007KT 26/07 A3003 RMK A01 T02580067  RH  029%=      5-min Rain = 0
KVA1 260406Z 18010KT 26/07 A3003 RMK A01 T02600066  RH  029%=      5-min Rain = 0
KVA1 260407Z 19008KT 27/07 A3003 RMK A01 T02690067  RH  028%=      5-min Rain = 0
KVA1 260408Z 19008KT 27/07 A3003 RMK A01 T02730068  RH  027%=      5-min Rain = 0
KVA1 260409Z 18008KT 27/07 A3003 RMK A01 T02730067  RH  027%=      5-min Rain = 0
KVA1 260410Z 18008KT 27/07 A3003 RMK A01 T02730066  RH  027%=      5-min Rain = 0
KVA1 260411Z 18006KT 27/07 A3003 RMK A01 T02730066  RH  027%=      5-min Rain = 0
KVA1 260412Z 18006KT 27/07 A3003 RMK A01 T02730066  RH  027%=      5-min Rain = 0
KVA1 260413Z 19006KT 27/07 A3003 RMK A01 T02730066  RH  027%=      5-min Rain = 0
KVA1 260414Z 19007KT 27/07 A3003 RMK A01 T02720066  RH  027%=      5-min Rain = 0
KVA1 260415Z 19007KT 27/07 A3003 RMK A01 T02720065  RH  027%=      5-min Rain = 0
KVA1 260416Z 19009KT 27/07 A3003 RMK A01 T02720065  RH  027%=      5-min Rain = 0
KVA1 260417Z 18009KT 28/07 A3003 RMK A01 T02750065  RH  026%=      5-min Rain = 0
KVA1 260418Z 18009KT 28/07 A3003 RMK A01 T02780065  RH  026%=      5-min Rain = 0
KVA1 260419Z 19007KT 28/07 A3003 RMK A01 T02810066  RH  026%=      5-min Rain = 0
KVA1 260420Z 18008KT 28/07 A3003 RMK A01 T02820066  RH  026%=      5-min Rain = 0
KVA1 260421Z 18007KT 28/07 A3004 RMK A01 T02820067  RH  026%=      5-min Rain = 0
KVA1 260422Z 18008KT 28/07 A3004 RMK A01 T02820067  RH  026%=      5-min Rain = 0
KVA1 260423Z 18008KT 28/07 A3004 RMK A01 T02820067  RH  026%=      5-min Rain = 0
KVA1 260424Z 18008KT 28/07 A3004 RMK A01 T02810068  RH  026%=      5-min Rain = 0
KVA1 260425Z 18008G13KT 28/07 A3004 RMK A01 T02810068  RH  026%=      5-min Rain = 0
KVA1 260426Z 17008KT 28/07 A3004 RMK A01 T02800071  RH  027%=      5-min Rain = 0
KVA1 260427Z 17007KT 28/07 A3004 RMK A01 T02810072  RH  027%=      5-min Rain = 0
KVA1 260428Z 16006KT 28/07 A3004 RMK A01 T02820072  RH  027%=      5-min Rain = 0
KVA1 260429Z 16006KT 28/07 A3004 RMK A01 T02810073  RH  027%=      5-min Rain = 0
KVA1 260430Z 16005KT 28/07 A3004 RMK A01 T02800074  RH  027%=      5-min Rain = 0
KVA1 260431Z 16004KT 28/07 A3004 RMK A01 T02800074  RH  027%=      5-min Rain = 0
KVA1 260432Z 16004KT 28/08 A3004 RMK A01 T02800075  RH  027%=      5-min Rain = 0
KVA1 260433Z 17002KT 28/08 A3004 RMK A01 T02800075  RH  027%=      5-min Rain = 0
KVA1 260434Z 16002KT 28/07 A3004 RMK A01 T02790074  RH  027%=      5-min Rain = 0
KVA1 260435Z 16002KT 28/07 A3004 RMK A01 T02790074  RH  028%=      5-min Rain = 0
KVA1 260436Z 17002KT 28/08 A3004 RMK A01 T02780075  RH  028%=      5-min Rain = 0
KVA1 260437Z 19002KT 28/08 A3004 RMK A01 T02770076  RH  028%=      5-min Rain = 0
KVA1 260438Z 17002KT 28/08 A3004 RMK A01 T02770079  RH  029%=      5-min Rain = 0
KVA1 260439Z 15002KT 28/08 A3004 RMK A01 T02770081  RH  029%=      5-min Rain = 0
KVA1 260440Z 16005KT 28/08 A3004 RMK A01 T02760082  RH  029%=      5-min Rain = 0
KVA1 260441Z 15010KT 28/09 A3004 RMK A01 T02750089  RH  031%=      5-min Rain = 0
KVA1 260442Z 14006G11KT 28/09 A3004 RMK A01 T02760092  RH  031%=      5-min Rain = 0
KVA1 260443Z 16008G14KT 28/09 A3004 RMK A01 T02770093  RH  032%=      5-min Rain = 0
KVA1 260444Z 17011KT 28/10 A3004 RMK A01 T02790095  RH  032%=      5-min Rain = 0
KVA1 260445Z 17011KT 28/10 A3004 RMK A01 T02790095  RH  032%=      5-min Rain = 0
KVA1 260446Z 16010KT 28/10 A3004 RMK A01 T02800095  RH  031%=      5-min Rain = 0
KVA1 260447Z 16008KT 28/10 A3004 RMK A01 T02800095  RH  031%=      5-min Rain = 0
KVA1 260448Z 16008KT 28/09 A3005 RMK A01 T02800094  RH  031%=      5-min Rain = 0
KVA1 260449Z 16008KT 28/09 A3005 RMK A01 T02800094  RH  031%=      5-min Rain = 0
KVA1 260450Z 15008KT 28/09 A3005 RMK A01 T02800094  RH  031%=      5-min Rain = 0
KVA1 260451Z 15007KT 28/09 A3005 RMK A01 T02800094  RH  031%=      5-min Rain = 0
KVA1 260452Z 16006KT 28/09 A3005 RMK A01 T02790093  RH  031%=      5-min Rain = 0
KVA1 260453Z 16006KT 28/09 A3005 RMK A01 T02790093  RH  031%=      5-min Rain = 0
KVA1 260454Z 16006KT 28/09 A3005 RMK A01 T02790093  RH  031%=      5-min Rain = 0
KVA1 260455Z 18006KT 28/09 A3005 RMK A01 T02790094  RH  031%=      5-min Rain = 0
KVA1 260456Z 19008KT 28/09 A3005 RMK A01 T02790092  RH  031%=      5-min Rain = 0
KVA1 260457Z 19007KT 28/09 A3005 RMK A01 T02790091  RH  031%=      5-min Rain = 0
KVA1 260458Z 19007KT 28/09 A3005 RMK A01 T02790090  RH  031%=      5-min Rain = 0
KVA1 260459Z 19010KT 28/09 A3005 RMK A01 T02780089  RH  030%=      5-min Rain = 0

Page generated in 0.1239 seconds.